Missouri River (Missouri), Glasgow (06906500)

StateMissouriLatestUnknown (93700 cfs)
RiverMissouri RiverRatingObservedEstimated
Updated2020-08-11 18:30 (38 minutes ago)Flood - The river is flooding. Obstacles can be treacherous or deadly. The river should be avoided at this stage for casual trips and definitely for the inexperienced. Trips should be attempted only with protective gear and equipment.Flood(none)(none)
Discharge93700 cfs (median: 52800 cfs)High - The river is high and potentially dangerous, especially for the young and / or inexperienced. Normal stream obstacles are sometimes difficult to navigate. Extended distances can be attempted, but canoe travel may not be advisable.High(none)(none)
Height18.24 feetGood - Conditions are ideal for a canoe or kayak. Boats typically will drag on fewer than one-quarter of riffles, if at all, and portages are unnecessary or rare. Normal float lengths can be attempted without a problem.Good(none)(none)
TrendFalling (falling over 24 hours)Low - River is low but can still be floated. Some riffles are okay but most come with significant dragging and might need a portage. Float lengths should be reduced to accommodate low flow, dragging, and portages.Low(none)(none)
USGSExternal icon USGS Site (External icon Google Maps)Poor - River is too low to float comfortably. Most or all riffles will drag or must be portaged and some obstacles (such as slick shelf rock) cause undue problems. Avoid the river at this stage for casual paddling trips.Poor(none)(none)

Trending Data

Plot Image

Trips for Missouri River (Missouri), Glasgow (06906500)

DateStartEndDistanceConditionDischargeHeightFishingDetails

A total of 0 rows are displayed.

Condition Descriptions

Fishing Conditions

Fish Species

Notes

Classic Trip List

The classic River Trips application is still available for use. It is updated with the new system using a data retrofit. It is no longer maintained. The original River Trips application is no longer updated (as of 1 Dec 2016) but can be checked for errors or for the condition of the data before it was converted to the new system.

Gauge Data Table

ObservationHeightDischargeMaximum
Discharge
Minimum
Discharge
Mean
Discharge
P05P10P20P25P50
(Median)
P75P80P90P95
2020-08-11 18:30 18.24 93700 201000 (2011) 33600 (2002) 69200 33600 34300 38400 41700 52800 82400 102000 139000 201000
2020-08-11 17:30 18.27 93900 201000 (2011) 33600 (2002) 69200 33600 34300 38400 41700 52800 82400 102000 139000 201000
2020-08-11 16:30 18.33 94400 201000 (2011) 33600 (2002) 69200 33600 34300 38400 41700 52800 82400 102000 139000 201000
2020-08-11 15:30 18.40 95000 201000 (2011) 33600 (2002) 69200 33600 34300 38400 41700 52800 82400 102000 139000 201000
2020-08-11 14:30 18.45 95500 201000 (2011) 33600 (2002) 69200 33600 34300 38400 41700 52800 82400 102000 139000 201000
2020-08-11 13:30 18.49 95800 201000 (2011) 33600 (2002) 69200 33600 34300 38400 41700 52800 82400 102000 139000 201000
2020-08-11 12:30 18.52 96100 201000 (2011) 33600 (2002) 69200 33600 34300 38400 41700 52800 82400 102000 139000 201000
2020-08-11 11:30 18.57 96500 201000 (2011) 33600 (2002) 69200 33600 34300 38400 41700 52800 82400 102000 139000 201000
2020-08-11 10:30 18.59 96700 201000 (2011) 33600 (2002) 69200 33600 34300 38400 41700 52800 82400 102000 139000 201000
2020-08-11 09:30 18.67 97400 201000 (2011) 33600 (2002) 69200 33600 34300 38400 41700 52800 82400 102000 139000 201000
2020-08-11 08:30 18.70 97700 201000 (2011) 33600 (2002) 69200 33600 34300 38400 41700 52800 82400 102000 139000 201000
2020-08-11 07:30 18.74 98000 201000 (2011) 33600 (2002) 69200 33600 34300 38400 41700 52800 82400 102000 139000 201000
2020-08-11 06:30 18.77 98300 201000 (2011) 33600 (2002) 69200 33600 34300 38400 41700 52800 82400 102000 139000 201000
2020-08-11 05:30 18.80 98500 201000 (2011) 33600 (2002) 69200 33600 34300 38400 41700 52800 82400 102000 139000 201000
2020-08-11 04:30 18.87 99100 201000 (2011) 33600 (2002) 69200 33600 34300 38400 41700 52800 82400 102000 139000 201000
2020-08-11 03:30 18.94 99800 201000 (2011) 33600 (2002) 69200 33600 34300 38400 41700 52800 82400 102000 139000 201000
2020-08-11 02:30 19.04 101000 201000 (2011) 33600 (2002) 69200 33600 34300 38400 41700 52800 82400 102000 139000 201000
2020-08-11 01:30 19.04 101000 201000 (2011) 33600 (2002) 69200 33600 34300 38400 41700 52800 82400 102000 139000 201000
2020-08-11 00:30 19.16 102000 201000 (2011) 33600 (2002) 69200 33600 34300 38400 41700 52800 82400 102000 139000 201000
2020-08-10 23:30 19.19 102000 204000 (2011) 31500 (2002) 67700 31500 34300 36200 41600 52700 83300 89200 142000 204000
2020-08-10 22:30 19.26 103000 204000 (2011) 31500 (2002) 67700 31500 34300 36200 41600 52700 83300 89200 142000 204000
2020-08-10 21:30 19.24 102000 204000 (2011) 31500 (2002) 67700 31500 34300 36200 41600 52700 83300 89200 142000 204000
2020-08-10 20:30 19.34 103000 204000 (2011) 31500 (2002) 67700 31500 34300 36200 41600 52700 83300 89200 142000 204000
2020-08-10 19:30 19.40 104000 204000 (2011) 31500 (2002) 67700 31500 34300 36200 41600 52700 83300 89200 142000 204000
2020-08-10 18:30 19.34 103000 204000 (2011) 31500 (2002) 67700 31500 34300 36200 41600 52700 83300 89200 142000 204000
2020-08-10 17:30 19.36 104000 204000 (2011) 31500 (2002) 67700 31500 34300 36200 41600 52700 83300 89200 142000 204000
2020-08-10 16:30 19.41 104000 204000 (2011) 31500 (2002) 67700 31500 34300 36200 41600 52700 83300 89200 142000 204000
2020-08-10 15:30 19.39 104000 204000 (2011) 31500 (2002) 67700 31500 34300 36200 41600 52700 83300 89200 142000 204000
2020-08-10 14:30 19.39 104000 204000 (2011) 31500 (2002) 67700 31500 34300 36200 41600 52700 83300 89200 142000 204000
2020-08-10 13:30 19.37 104000 204000 (2011) 31500 (2002) 67700 31500 34300 36200 41600 52700 83300 89200 142000 204000
2020-08-10 12:30 19.28 103000 204000 (2011) 31500 (2002) 67700 31500 34300 36200 41600 52700 83300 89200 142000 204000
2020-08-10 11:30 19.28 103000 204000 (2011) 31500 (2002) 67700 31500 34300 36200 41600 52700 83300 89200 142000 204000
2020-08-10 10:30 19.27 103000 204000 (2011) 31500 (2002) 67700 31500 34300 36200 41600 52700 83300 89200 142000 204000
2020-08-10 09:30 19.26 103000 204000 (2011) 31500 (2002) 67700 31500 34300 36200 41600 52700 83300 89200 142000 204000
2020-08-10 08:30 19.27 103000 204000 (2011) 31500 (2002) 67700 31500 34300 36200 41600 52700 83300 89200 142000 204000
2020-08-10 07:30 19.22 102000 204000 (2011) 31500 (2002) 67700 31500 34300 36200 41600 52700 83300 89200 142000 204000
2020-08-10 06:30 19.17 102000 204000 (2011) 31500 (2002) 67700 31500 34300 36200 41600 52700 83300 89200 142000 204000
2020-08-10 05:30 19.14 102000 204000 (2011) 31500 (2002) 67700 31500 34300 36200 41600 52700 83300 89200 142000 204000
2020-08-10 04:30 19.11 101000 204000 (2011) 31500 (2002) 67700 31500 34300 36200 41600 52700 83300 89200 142000 204000
2020-08-10 03:30 19.07 101000 204000 (2011) 31500 (2002) 67700 31500 34300 36200 41600 52700 83300 89200 142000 204000
2020-08-10 02:30 19.02 100000 204000 (2011) 31500 (2002) 67700 31500 34300 36200 41600 52700 83300 89200 142000 204000
2020-08-10 01:30 18.92 99600 204000 (2011) 31500 (2002) 67700 31500 34300 36200 41600 52700 83300 89200 142000 204000
2020-08-10 00:30 18.88 99200 204000 (2011) 31500 (2002) 67700 31500 34300 36200 41600 52700 83300 89200 142000 204000
2020-08-09 23:30 18.84 98900 206000 (2011) 30900 (2002) 68900 30900 34500 35700 40800 56500 76000 84300 143000 206000
2020-08-09 22:30 18.73 97900 206000 (2011) 30900 (2002) 68900 30900 34500 35700 40800 56500 76000 84300 143000 206000
2020-08-09 21:30 18.66 97300 206000 (2011) 30900 (2002) 68900 30900 34500 35700 40800 56500 76000 84300 143000 206000
2020-08-09 20:30 18.54 96300 206000 (2011) 30900 (2002) 68900 30900 34500 35700 40800 56500 76000 84300 143000 206000
2020-08-09 19:30 18.40 95000 206000 (2011) 30900 (2002) 68900 30900 34500 35700 40800 56500 76000 84300 143000 206000
2020-08-09 18:30 18.32 94400 206000 (2011) 30900 (2002) 68900 30900 34500 35700 40800 56500 76000 84300 143000 206000
2020-08-09 17:30 18.21 93400 206000 (2011) 30900 (2002) 68900 30900 34500 35700 40800 56500 76000 84300 143000 206000
2020-08-09 16:30 18.10 92500 206000 (2011) 30900 (2002) 68900 30900 34500 35700 40800 56500 76000 84300 143000 206000
2020-08-09 15:30 18.02 91800 206000 (2011) 30900 (2002) 68900 30900 34500 35700 40800 56500 76000 84300 143000 206000
2020-08-09 14:30 17.97 91400 206000 (2011) 30900 (2002) 68900 30900 34500 35700 40800 56500 76000 84300 143000 206000
2020-08-09 13:30 17.86 90500 206000 (2011) 30900 (2002) 68900 30900 34500 35700 40800 56500 76000 84300 143000 206000
2020-08-09 12:30 17.82 90100 206000 (2011) 30900 (2002) 68900 30900 34500 35700 40800 56500 76000 84300 143000 206000
2020-08-09 11:30 17.79 89900 206000 (2011) 30900 (2002) 68900 30900 34500 35700 40800 56500 76000 84300 143000 206000
2020-08-09 10:30 17.71 89200 206000 (2011) 30900 (2002) 68900 30900 34500 35700 40800 56500 76000 84300 143000 206000
2020-08-09 09:30 17.65 88600 206000 (2011) 30900 (2002) 68900 30900 34500 35700 40800 56500 76000 84300 143000 206000
2020-08-09 08:30 17.62 88400 206000 (2011) 30900 (2002) 68900 30900 34500 35700 40800 56500 76000 84300 143000 206000
2020-08-09 07:30 17.62 88400 206000 (2011) 30900 (2002) 68900 30900 34500 35700 40800 56500 76000 84300 143000 206000
2020-08-09 06:30 17.57 87900 206000 (2011) 30900 (2002) 68900 30900 34500 35700 40800 56500 76000 84300 143000 206000
2020-08-09 05:30 17.55 87800 206000 (2011) 30900 (2002) 68900 30900 34500 35700 40800 56500 76000 84300 143000 206000
2020-08-09 04:30 17.53 87600 206000 (2011) 30900 (2002) 68900 30900 34500 35700 40800 56500 76000 84300 143000 206000
2020-08-09 03:30 17.51 87400 206000 (2011) 30900 (2002) 68900 30900 34500 35700 40800 56500 76000 84300 143000 206000
2020-08-09 02:30 17.48 87100 206000 (2011) 30900 (2002) 68900 30900 34500 35700 40800 56500 76000 84300 143000 206000
2020-08-09 01:30 17.49 87200 206000 (2011) 30900 (2002) 68900 30900 34500 35700 40800 56500 76000 84300 143000 206000
2020-08-09 00:30 17.49 87200 206000 (2011) 30900 (2002) 68900 30900 34500 35700 40800 56500 76000 84300 143000 206000
2020-08-08 23:30 17.46 87000 209000 (2011) 30700 (2002) 71200 30700 34900 35300 40900 60100 84300 86400 140000 209000
2020-08-08 22:30 17.47 87100 209000 (2011) 30700 (2002) 71200 30700 34900 35300 40900 60100 84300 86400 140000 209000
2020-08-08 21:30 17.41 86500 209000 (2011) 30700 (2002) 71200 30700 34900 35300 40900 60100 84300 86400 140000 209000
2020-08-08 20:30 17.44 86800 209000 (2011) 30700 (2002) 71200 30700 34900 35300 40900 60100 84300 86400 140000 209000
2020-08-08 19:30 17.45 86900 209000 (2011) 30700 (2002) 71200 30700 34900 35300 40900 60100 84300 86400 140000 209000
2020-08-08 18:30 17.45 86900 209000 (2011) 30700 (2002) 71200 30700 34900 35300 40900 60100 84300 86400 140000 209000
2020-08-08 17:30 17.42 86600 209000 (2011) 30700 (2002) 71200 30700 34900 35300 40900 60100 84300 86400 140000 209000
2020-08-08 16:30 17.38 86300 209000 (2011) 30700 (2002) 71200 30700 34900 35300 40900 60100 84300 86400 140000 209000
2020-08-08 15:30 17.40 86400 209000 (2011) 30700 (2002) 71200 30700 34900 35300 40900 60100 84300 86400 140000 209000
2020-08-08 14:30 17.36 86100 209000 (2011) 30700 (2002) 71200 30700 34900 35300 40900 60100 84300 86400 140000 209000
2020-08-08 13:30 17.36 86100 209000 (2011) 30700 (2002) 71200 30700 34900 35300 40900 60100 84300 86400 140000 209000
2020-08-08 12:30 17.31 85700 209000 (2011) 30700 (2002) 71200 30700 34900 35300 40900 60100 84300 86400 140000 209000
2020-08-08 11:30 17.28 85400 209000 (2011) 30700 (2002) 71200 30700 34900 35300 40900 60100 84300 86400 140000 209000
2020-08-08 10:30 17.22 84900 209000 (2011) 30700 (2002) 71200 30700 34900 35300 40900 60100 84300 86400 140000 209000
2020-08-08 09:30 17.22 84900 209000 (2011) 30700 (2002) 71200 30700 34900 35300 40900 60100 84300 86400 140000 209000
2020-08-08 08:30 17.17 84500 209000 (2011) 30700 (2002) 71200 30700 34900 35300 40900 60100 84300 86400 140000 209000
2020-08-08 07:30 17.12 84000 209000 (2011) 30700 (2002) 71200 30700 34900 35300 40900 60100 84300 86400 140000 209000
2020-08-08 06:30 17.04 83400 209000 (2011) 30700 (2002) 71200 30700 34900 35300 40900 60100 84300 86400 140000 209000
2020-08-08 05:30 17.08 83700 209000 (2011) 30700 (2002) 71200 30700 34900 35300 40900 60100 84300 86400 140000 209000
2020-08-08 04:30 17.06 83500 209000 (2011) 30700 (2002) 71200 30700 34900 35300 40900 60100 84300 86400 140000 209000
2020-08-08 03:30 17.04 83400 209000 (2011) 30700 (2002) 71200 30700 34900 35300 40900 60100 84300 86400 140000 209000
2020-08-08 02:30 17.09 83800 209000 (2011) 30700 (2002) 71200 30700 34900 35300 40900 60100 84300 86400 140000 209000
2020-08-08 01:30 17.04 83400 209000 (2011) 30700 (2002) 71200 30700 34900 35300 40900 60100 84300 86400 140000 209000
2020-08-08 00:30 17.07 83600 209000 (2011) 30700 (2002) 71200 30700 34900 35300 40900 60100 84300 86400 140000 209000
2020-08-07 23:30 17.10 83900 210000 (2011) 30700 (2002) 72400 30700 34700 35400 40200 58500 84600 96200 134000 210000
2020-08-07 22:30 17.10 83900 210000 (2011) 30700 (2002) 72400 30700 34700 35400 40200 58500 84600 96200 134000 210000
2020-08-07 21:30 17.10 83900 210000 (2011) 30700 (2002) 72400 30700 34700 35400 40200 58500 84600 96200 134000 210000
2020-08-07 20:30 17.07 83600 210000 (2011) 30700 (2002) 72400 30700 34700 35400 40200 58500 84600 96200 134000 210000
2020-08-07 19:30 17.05 83500 210000 (2011) 30700 (2002) 72400 30700 34700 35400 40200 58500 84600 96200 134000 210000
2020-08-07 18:30 17.06 83500 210000 (2011) 30700 (2002) 72400 30700 34700 35400 40200 58500 84600 96200 134000 210000
2020-08-07 17:30 17.05 83500 210000 (2011) 30700 (2002) 72400 30700 34700 35400 40200 58500 84600 96200 134000 210000
2020-08-07 16:30 17.04 83400 210000 (2011) 30700 (2002) 72400 30700 34700 35400 40200 58500 84600 96200 134000 210000
2020-08-07 15:30 17.04 83400 210000 (2011) 30700 (2002) 72400 30700 34700 35400 40200 58500 84600 96200 134000 210000
2020-08-07 14:30 17.06 83500 210000 (2011) 30700 (2002) 72400 30700 34700 35400 40200 58500 84600 96200 134000 210000
2020-08-07 13:30 17.04 83400 210000 (2011) 30700 (2002) 72400 30700 34700 35400 40200 58500 84600 96200 134000 210000
2020-08-07 12:30 17.07 83600 210000 (2011) 30700 (2002) 72400 30700 34700 35400 40200 58500 84600 96200 134000 210000
2020-08-07 11:30 17.06 83500 210000 (2011) 30700 (2002) 72400 30700 34700 35400 40200 58500 84600 96200 134000 210000
2020-08-07 10:30 17.04 83400 210000 (2011) 30700 (2002) 72400 30700 34700 35400 40200 58500 84600 96200 134000 210000
2020-08-07 09:30 17.04 83400 210000 (2011) 30700 (2002) 72400 30700 34700 35400 40200 58500 84600 96200 134000 210000
2020-08-07 08:30 17.05 83500 210000 (2011) 30700 (2002) 72400 30700 34700 35400 40200 58500 84600 96200 134000 210000
2020-08-07 07:30 17.06 83500 210000 (2011) 30700 (2002) 72400 30700 34700 35400 40200 58500 84600 96200 134000 210000
2020-08-07 06:30 17.08 83700 210000 (2011) 30700 (2002) 72400 30700 34700 35400 40200 58500 84600 96200 134000 210000
2020-08-07 05:30 17.06 83500 210000 (2011) 30700 (2002) 72400 30700 34700 35400 40200 58500 84600 96200 134000 210000
2020-08-07 04:30 17.01 83100 210000 (2011) 30700 (2002) 72400 30700 34700 35400 40200 58500 84600 96200 134000 210000
2020-08-07 03:30 17.01 83100 210000 (2011) 30700 (2002) 72400 30700 34700 35400 40200 58500 84600 96200 134000 210000
2020-08-07 02:30 17.03 83300 210000 (2011) 30700 (2002) 72400 30700 34700 35400 40200 58500 84600 96200 134000 210000
2020-08-07 01:30 17.01 83100 210000 (2011) 30700 (2002) 72400 30700 34700 35400 40200 58500 84600 96200 134000 210000
2020-08-07 00:30 16.99 83000 210000 (2011) 30700 (2002) 72400 30700 34700 35400 40200 58500 84600 96200 134000 210000
2020-08-06 23:30 16.97 82800 212000 (2011) 31000 (2002) 71300 31000 34500 35700 40700 54600 83700 105000 134000 212000
2020-08-06 22:30 16.95 82600 212000 (2011) 31000 (2002) 71300 31000 34500 35700 40700 54600 83700 105000 134000 212000
2020-08-06 21:30 16.93 82500 212000 (2011) 31000 (2002) 71300 31000 34500 35700 40700 54600 83700 105000 134000 212000
2020-08-06 20:30 16.88 82000 212000 (2011) 31000 (2002) 71300 31000 34500 35700 40700 54600 83700 105000 134000 212000
2020-08-06 19:30 16.86 81900 212000 (2011) 31000 (2002) 71300 31000 34500 35700 40700 54600 83700 105000 134000 212000
2020-08-06 18:30 16.83 81600 212000 (2011) 31000 (2002) 71300 31000 34500 35700 40700 54600 83700 105000 134000 212000
2020-08-06 17:30 16.83 81600 212000 (2011) 31000 (2002) 71300 31000 34500 35700 40700 54600 83700 105000 134000 212000
2020-08-06 16:30 16.81 81500 212000 (2011) 31000 (2002) 71300 31000 34500 35700 40700 54600 83700 105000 134000 212000
2020-08-06 15:30 16.81 81500 212000 (2011) 31000 (2002) 71300 31000 34500 35700 40700 54600 83700 105000 134000 212000
2020-08-06 14:30 16.78 81200 212000 (2011) 31000 (2002) 71300 31000 34500 35700 40700 54600 83700 105000 134000 212000
2020-08-06 13:30 16.79 81300 212000 (2011) 31000 (2002) 71300 31000 34500 35700 40700 54600 83700 105000 134000 212000
2020-08-06 12:30 16.76 81000 212000 (2011) 31000 (2002) 71300 31000 34500 35700 40700 54600 83700 105000 134000 212000
2020-08-06 11:30 16.73 80800 212000 (2011) 31000 (2002) 71300 31000 34500 35700 40700 54600 83700 105000 134000 212000
2020-08-06 10:30 16.73 80800 212000 (2011) 31000 (2002) 71300 31000 34500 35700 40700 54600 83700 105000 134000 212000
2020-08-06 09:30 16.75 81000 212000 (2011) 31000 (2002) 71300 31000 34500 35700 40700 54600 83700 105000 134000 212000
2020-08-06 08:30 16.75 81000 212000 (2011) 31000 (2002) 71300 31000 34500 35700 40700 54600 83700 105000 134000 212000
2020-08-06 07:30 16.74 80900 212000 (2011) 31000 (2002) 71300 31000 34500 35700 40700 54600 83700 105000 134000 212000
2020-08-06 06:30 16.77 81100 212000 (2011) 31000 (2002) 71300 31000 34500 35700 40700 54600 83700 105000 134000 212000
2020-08-06 05:30 16.80 81400 212000 (2011) 31000 (2002) 71300 31000 34500 35700 40700 54600 83700 105000 134000 212000
2020-08-06 04:30 16.80 81400 212000 (2011) 31000 (2002) 71300 31000 34500 35700 40700 54600 83700 105000 134000 212000
2020-08-06 03:30 16.77 81100 212000 (2011) 31000 (2002) 71300 31000 34500 35700 40700 54600 83700 105000 134000 212000
2020-08-06 02:30 16.84 81700 212000 (2011) 31000 (2002) 71300 31000 34500 35700 40700 54600 83700 105000 134000 212000
2020-08-06 01:30 16.86 81900 212000 (2011) 31000 (2002) 71300 31000 34500 35700 40700 54600 83700 105000 134000 212000
2020-08-06 00:30 16.90 82200 212000 (2011) 31000 (2002) 71300 31000 34500 35700 40700 54600 83700 105000 134000 212000
2020-08-05 23:30 16.91 82300 213000 (2011) 31100 (2002) 71100 31100 34100 35600 40900 52200 84300 106000 136000 213000
2020-08-05 22:30 16.91 82300 213000 (2011) 31100 (2002) 71100 31100 34100 35600 40900 52200 84300 106000 136000 213000
2020-08-05 21:30 16.96 82700 213000 (2011) 31100 (2002) 71100 31100 34100 35600 40900 52200 84300 106000 136000 213000
2020-08-05 20:30 16.98 82900 213000 (2011) 31100 (2002) 71100 31100 34100 35600 40900 52200 84300 106000 136000 213000
2020-08-05 19:30 17.00 83000 213000 (2011) 31100 (2002) 71100 31100 34100 35600 40900 52200 84300 106000 136000 213000
2020-08-05 18:30 16.99 83000 213000 (2011) 31100 (2002) 71100 31100 34100 35600 40900 52200 84300 106000 136000 213000
2020-08-05 17:30 17.01 83100 213000 (2011) 31100 (2002) 71100 31100 34100 35600 40900 52200 84300 106000 136000 213000
2020-08-05 16:30 17.05 83500 213000 (2011) 31100 (2002) 71100 31100 34100 35600 40900 52200 84300 106000 136000 213000
2020-08-05 15:30 17.11 84000 213000 (2011) 31100 (2002) 71100 31100 34100 35600 40900 52200 84300 106000 136000 213000
2020-08-05 14:30 17.14 84200 213000 (2011) 31100 (2002) 71100 31100 34100 35600 40900 52200 84300 106000 136000 213000
2020-08-05 13:30 17.21 84800 213000 (2011) 31100 (2002) 71100 31100 34100 35600 40900 52200 84300 106000 136000 213000
2020-08-05 12:30 17.23 85000 213000 (2011) 31100 (2002) 71100 31100 34100 35600 40900 52200 84300 106000 136000 213000
2020-08-05 11:30 17.24 85100 213000 (2011) 31100 (2002) 71100 31100 34100 35600 40900 52200 84300 106000 136000 213000
2020-08-05 10:30 17.29 85500 213000 (2011) 31100 (2002) 71100 31100 34100 35600 40900 52200 84300 106000 136000 213000
2020-08-05 09:30 17.34 85900 213000 (2011) 31100 (2002) 71100 31100 34100 35600 40900 52200 84300 106000 136000 213000
2020-08-05 08:30 17.37 86200 213000 (2011) 31100 (2002) 71100 31100 34100 35600 40900 52200 84300 106000 136000 213000
2020-08-05 07:30 17.46 87000 213000 (2011) 31100 (2002) 71100 31100 34100 35600 40900 52200 84300 106000 136000 213000
2020-08-05 06:30 17.51 87400 213000 (2011) 31100 (2002) 71100 31100 34100 35600 40900 52200 84300 106000 136000 213000
2020-08-05 05:30 17.57 87900 213000 (2011) 31100 (2002) 71100 31100 34100 35600 40900 52200 84300 106000 136000 213000
2020-08-05 04:30 17.58 88000 213000 (2011) 31100 (2002) 71100 31100 34100 35600 40900 52200 84300 106000 136000 213000
2020-08-05 03:30 17.62 88400 213000 (2011) 31100 (2002) 71100 31100 34100 35600 40900 52200 84300 106000 136000 213000
2020-08-05 02:30 17.67 88800 213000 (2011) 31100 (2002) 71100 31100 34100 35600 40900 52200 84300 106000 136000 213000
2020-08-05 01:30 17.72 89300 213000 (2011) 31100 (2002) 71100 31100 34100 35600 40900 52200 84300 106000 136000 213000
2020-08-05 00:30 17.78 89800 213000 (2011) 31100 (2002) 71100 31100 34100 35600 40900 52200 84300 106000 136000 213000
2020-08-04 23:30 17.83 90200 215000 (2011) 31700 (2002) 72900 31700 33400 35700 39600 52900 91400 112000 144000 215000
2020-08-04 22:30 17.85 90400 215000 (2011) 31700 (2002) 72900 31700 33400 35700 39600 52900 91400 112000 144000 215000
2020-08-04 21:30 17.92 91000 215000 (2011) 31700 (2002) 72900 31700 33400 35700 39600 52900 91400 112000 144000 215000
2020-08-04 20:30 17.93 91100 215000 (2011) 31700 (2002) 72900 31700 33400 35700 39600 52900 91400 112000 144000 215000
2020-08-04 19:30 17.98 91500 215000 (2011) 31700 (2002) 72900 31700 33400 35700 39600 52900 91400 112000 144000 215000
2020-08-04 18:30 18.06 92200 215000 (2011) 31700 (2002) 72900 31700 33400 35700 39600 52900 91400 112000 144000 215000
2020-08-04 17:30 18.11 92600 215000 (2011) 31700 (2002) 72900 31700 33400 35700 39600 52900 91400 112000 144000 215000
2020-08-04 16:30 18.12 92700 215000 (2011) 31700 (2002) 72900 31700 33400 35700 39600 52900 91400 112000 144000 215000
2020-08-04 15:30 18.20 93300 215000 (2011) 31700 (2002) 72900 31700 33400 35700 39600 52900 91400 112000 144000 215000
2020-08-04 14:30 18.27 93900 215000 (2011) 31700 (2002) 72900 31700 33400 35700 39600 52900 91400 112000 144000 215000
2020-08-04 13:30 18.31 94300 215000 (2011) 31700 (2002) 72900 31700 33400 35700 39600 52900 91400 112000 144000 215000
2020-08-04 12:30 18.37 94800 215000 (2011) 31700 (2002) 72900 31700 33400 35700 39600 52900 91400 112000 144000 215000
2020-08-04 11:30 18.44 95400 215000 (2011) 31700 (2002) 72900 31700 33400 35700 39600 52900 91400 112000 144000 215000
2020-08-04 10:30 18.53 96200 215000 (2011) 31700 (2002) 72900 31700 33400 35700 39600 52900 91400 112000 144000 215000
2020-08-04 09:30 18.57 96500 215000 (2011) 31700 (2002) 72900 31700 33400 35700 39600 52900 91400 112000 144000 215000
2020-08-04 08:30 18.64 97100 215000 (2011) 31700 (2002) 72900 31700 33400 35700 39600 52900 91400 112000 144000 215000
2020-08-04 07:30 18.70 97700 215000 (2011) 31700 (2002) 72900 31700 33400 35700 39600 52900 91400 112000 144000 215000
2020-08-04 06:30 18.75 98100 215000 (2011) 31700 (2002) 72900 31700 33400 35700 39600 52900 91400 112000 144000 215000
2020-08-04 05:30 18.81 98600 215000 (2011) 31700 (2002) 72900 31700 33400 35700 39600 52900 91400 112000 144000 215000
2020-08-04 04:30 18.88 99200 215000 (2011) 31700 (2002) 72900 31700 33400 35700 39600 52900 91400 112000 144000 215000
2020-08-04 03:30 18.97 100000 215000 (2011) 31700 (2002) 72900 31700 33400 35700 39600 52900 91400 112000 144000 215000
2020-08-04 02:30 19.03 101000 215000 (2011) 31700 (2002) 72900 31700 33400 35700 39600 52900 91400 112000 144000 215000
2020-08-04 01:30 19.08 101000 215000 (2011) 31700 (2002) 72900 31700 33400 35700 39600 52900 91400 112000 144000 215000
2020-08-04 00:30 19.15 102000 215000 (2011) 31700 (2002) 72900 31700 33400 35700 39600 52900 91400 112000 144000 215000
2020-08-03 23:30 19.21 102000 218000 (2011) 32400 (2002) 76800 32400 33300 36600 39400 52200 121000 132000 152000 218000
2020-08-03 22:30 19.28 103000 218000 (2011) 32400 (2002) 76800 32400 33300 36600 39400 52200 121000 132000 152000 218000
2020-08-03 21:30 19.37 104000 218000 (2011) 32400 (2002) 76800 32400 33300 36600 39400 52200 121000 132000 152000 218000
2020-08-03 20:30 19.44 104000 218000 (2011) 32400 (2002) 76800 32400 33300 36600 39400 52200 121000 132000 152000 218000
2020-08-03 19:30 19.52 105000 218000 (2011) 32400 (2002) 76800 32400 33300 36600 39400 52200 121000 132000 152000 218000
2020-08-03 18:30 19.54 105000 218000 (2011) 32400 (2002) 76800 32400 33300 36600 39400 52200 121000 132000 152000 218000
2020-08-03 17:30 19.63 106000 218000 (2011) 32400 (2002) 76800 32400 33300 36600 39400 52200 121000 132000 152000 218000
2020-08-03 16:30 19.72 107000 218000 (2011) 32400 (2002) 76800 32400 33300 36600 39400 52200 121000 132000 152000 218000
2020-08-03 15:30 19.81 108000 218000 (2011) 32400 (2002) 76800 32400 33300 36600 39400 52200 121000 132000 152000 218000
2020-08-03 14:30 19.86 108000 218000 (2011) 32400 (2002) 76800 32400 33300 36600 39400 52200 121000 132000 152000 218000
2020-08-03 13:30 19.93 109000 218000 (2011) 32400 (2002) 76800 32400 33300 36600 39400 52200 121000 132000 152000 218000
2020-08-03 12:30 20.02 110000 218000 (2011) 32400 (2002) 76800 32400 33300 36600 39400 52200 121000 132000 152000 218000
2020-08-03 11:30 20.12 111000 218000 (2011) 32400 (2002) 76800 32400 33300 36600 39400 52200 121000 132000 152000 218000
2020-08-03 10:30 20.21 112000 218000 (2011) 32400 (2002) 76800 32400 33300 36600 39400 52200 121000 132000 152000 218000
2020-08-03 09:30 20.28 112000 218000 (2011) 32400 (2002) 76800 32400 33300 36600 39400 52200 121000 132000 152000 218000
2020-08-03 08:30 20.33 113000 218000 (2011) 32400 (2002) 76800 32400 33300 36600 39400 52200 121000 132000 152000 218000
2020-08-03 07:30 20.44 114000 218000 (2011) 32400 (2002) 76800 32400 33300 36600 39400 52200 121000 132000 152000 218000
2020-08-03 06:30 20.56 115000 218000 (2011) 32400 (2002) 76800 32400 33300 36600 39400 52200 121000 132000 152000 218000
2020-08-03 05:30 20.67 116000 218000 (2011) 32400 (2002) 76800 32400 33300 36600 39400 52200 121000 132000 152000 218000
2020-08-03 04:30 20.80 117000 218000 (2011) 32400 (2002) 76800 32400 33300 36600 39400 52200 121000 132000 152000 218000
2020-08-03 03:30 20.90 118000 218000 (2011) 32400 (2002) 76800 32400 33300 36600 39400 52200 121000 132000 152000 218000
2020-08-03 02:30 21.02 120000 218000 (2011) 32400 (2002) 76800 32400 33300 36600 39400 52200 121000 132000 152000 218000
2020-08-03 01:30 21.19 121000 218000 (2011) 32400 (2002) 76800 32400 33300 36600 39400 52200 121000 132000 152000 218000
2020-08-03 00:30 21.32 123000 218000 (2011) 32400 (2002) 76800 32400 33300 36600 39400 52200 121000 132000 152000 218000
2020-08-02 23:30 21.46 124000 221000 (2011) 33500 (2002) 80100 33500 33700 37600 38800 54300 143000 147000 154000 221000
2020-08-02 22:30 21.61 126000 221000 (2011) 33500 (2002) 80100 33500 33700 37600 38800 54300 143000 147000 154000 221000
2020-08-02 21:30 21.76 128000 221000 (2011) 33500 (2002) 80100 33500 33700 37600 38800 54300 143000 147000 154000 221000
2020-08-02 20:30 21.85 128000 221000 (2011) 33500 (2002) 80100 33500 33700 37600 38800 54300 143000 147000 154000 221000
2020-08-02 19:30 21.96 130000 221000 (2011) 33500 (2002) 80100 33500 33700 37600 38800 54300 143000 147000 154000 221000
2020-08-02 18:30 22.12 131000 221000 (2011) 33500 (2002) 80100 33500 33700 37600 38800 54300 143000 147000 154000 221000
2020-08-02 17:30 22.25 133000 221000 (2011) 33500 (2002) 80100 33500 33700 37600 38800 54300 143000 147000 154000 221000
2020-08-02 16:30 22.40 135000 221000 (2011) 33500 (2002) 80100 33500 33700 37600 38800 54300 143000 147000 154000 221000
2020-08-02 15:30 22.54 136000 221000 (2011) 33500 (2002) 80100 33500 33700 37600 38800 54300 143000 147000 154000 221000
2020-08-02 14:30 22.70 138000 221000 (2011) 33500 (2002) 80100 33500 33700 37600 38800 54300 143000 147000 154000 221000
2020-08-02 13:30 22.87 140000 221000 (2011) 33500 (2002) 80100 33500 33700 37600 38800 54300 143000 147000 154000 221000
2020-08-02 12:30 23.02 142000 221000 (2011) 33500 (2002) 80100 33500 33700 37600 38800 54300 143000 147000 154000 221000
2020-08-02 11:30 23.20 144000 221000 (2011) 33500 (2002) 80100 33500 33700 37600 38800 54300 143000 147000 154000 221000
2020-08-02 10:30 23.40 146000 221000 (2011) 33500 (2002) 80100 33500 33700 37600 38800 54300 143000 147000 154000 221000
2020-08-02 09:30 23.56 148000 221000 (2011) 33500 (2002) 80100 33500 33700 37600 38800 54300 143000 147000 154000 221000
2020-08-02 08:30 23.69 150000 221000 (2011) 33500 (2002) 80100 33500 33700 37600 38800 54300 143000 147000 154000 221000
2020-08-02 07:30 23.84 152000 221000 (2011) 33500 (2002) 80100 33500 33700 37600 38800 54300 143000 147000 154000 221000
2020-08-02 06:30 24.02 154000 221000 (2011) 33500 (2002) 80100 33500 33700 37600 38800 54300 143000 147000 154000 221000
2020-08-02 05:30 24.16 156000 221000 (2011) 33500 (2002) 80100 33500 33700 37600 38800 54300 143000 147000 154000 221000
2020-08-02 04:30 24.36 158000 221000 (2011) 33500 (2002) 80100 33500 33700 37600 38800 54300 143000 147000 154000 221000
2020-08-02 03:30 24.54 160000 221000 (2011) 33500 (2002) 80100 33500 33700 37600 38800 54300 143000 147000 154000 221000
2020-08-02 02:30 24.73 163000 221000 (2011) 33500 (2002) 80100 33500 33700 37600 38800 54300 143000 147000 154000 221000
2020-08-02 01:30 24.87 165000 221000 (2011) 33500 (2002) 80100 33500 33700 37600 38800 54300 143000 147000 154000 221000
2020-08-02 00:30 25.02 167000 221000 (2011) 33500 (2002) 80100 33500 33700 37600 38800 54300 143000 147000 154000 221000
2020-08-01 23:30 25.20 169000 222000 (2011) 33100 (2006) 83600 33100 35500 39200 40100 56100 153000 156000 198000 222000
2020-08-01 22:30 25.31 171000 222000 (2011) 33100 (2006) 83600 33100 35500 39200 40100 56100 153000 156000 198000 222000
2020-08-01 21:30 25.46 173000 222000 (2011) 33100 (2006) 83600 33100 35500 39200 40100 56100 153000 156000 198000 222000
2020-08-01 20:30 25.62 175000 222000 (2011) 33100 (2006) 83600 33100 35500 39200 40100 56100 153000 156000 198000 222000
2020-08-01 19:30 25.74 177000 222000 (2011) 33100 (2006) 83600 33100 35500 39200 40100 56100 153000 156000 198000 222000
2020-08-01 18:30 25.85 178000 222000 (2011) 33100 (2006) 83600 33100 35500 39200 40100 56100 153000 156000 198000 222000
2020-08-01 17:30 25.83 178000 222000 (2011) 33100 (2006) 83600 33100 35500 39200 40100 56100 153000 156000 198000 222000
2020-08-01 16:30 25.85 178000 222000 (2011) 33100 (2006) 83600 33100 35500 39200 40100 56100 153000 156000 198000 222000
2020-08-01 15:30 25.91 179000 222000 (2011) 33100 (2006) 83600 33100 35500 39200 40100 56100 153000 156000 198000 222000
2020-08-01 14:30 25.86 178000 222000 (2011) 33100 (2006) 83600 33100 35500 39200 40100 56100 153000 156000 198000 222000
2020-08-01 13:30 25.86 178000 222000 (2011) 33100 (2006) 83600 33100 35500 39200 40100 56100 153000 156000 198000 222000
2020-08-01 12:30 25.88 178000 222000 (2011) 33100 (2006) 83600 33100 35500 39200 40100 56100 153000 156000 198000 222000
2020-08-01 11:30 25.91 179000 222000 (2011) 33100 (2006) 83600 33100 35500 39200 40100 56100 153000 156000 198000 222000
2020-08-01 10:30 25.81 177000 222000 (2011) 33100 (2006) 83600 33100 35500 39200 40100 56100 153000 156000 198000 222000
2020-08-01 09:30 25.78 177000 222000 (2011) 33100 (2006) 83600 33100 35500 39200 40100 56100 153000 156000 198000 222000
2020-08-01 08:30 25.71 176000 222000 (2011) 33100 (2006) 83600 33100 35500 39200 40100 56100 153000 156000 198000 222000
2020-08-01 07:30 25.65 175000 222000 (2011) 33100 (2006) 83600 33100 35500 39200 40100 56100 153000 156000 198000 222000
2020-08-01 06:30 25.53 174000 222000 (2011) 33100 (2006) 83600 33100 35500 39200 40100 56100 153000 156000 198000 222000
2020-08-01 05:30 25.46 173000 222000 (2011) 33100 (2006) 83600 33100 35500 39200 40100 56100 153000 156000 198000 222000
2020-08-01 04:30 25.24 170000 222000 (2011) 33100 (2006) 83600 33100 35500 39200 40100 56100 153000 156000 198000 222000
2020-08-01 03:30 25.02 167000 222000 (2011) 33100 (2006) 83600 33100 35500 39200 40100 56100 153000 156000 198000 222000
2020-08-01 02:30 24.83 164000 222000 (2011) 33100 (2006) 83600 33100 35500 39200 40100 56100 153000 156000 198000 222000
2020-08-01 01:30 24.61 161000 222000 (2011) 33100 (2006) 83600 33100 35500 39200 40100 56100 153000 156000 198000 222000
2020-08-01 00:30 24.44 159000 222000 (2011) 33100 (2006) 83600 33100 35500 39200 40100 56100 153000 156000 198000 222000
2020-07-31 23:30 24.17 156000 222000 (2011) 32800 (2006) 85800 32800 36100 38200 41900 54000 144000 155000 220000 222000
2020-07-31 22:30 23.90 152000 222000 (2011) 32800 (2006) 85800 32800 36100 38200 41900 54000 144000 155000 220000 222000
2020-07-31 21:30 23.55 148000 222000 (2011) 32800 (2006) 85800 32800 36100 38200 41900 54000 144000 155000 220000 222000
2020-07-31 20:30 23.25 144000 222000 (2011) 32800 (2006) 85800 32800 36100 38200 41900 54000 144000 155000 220000 222000
2020-07-31 19:30 23.06 142000 222000 (2011) 32800 (2006) 85800 32800 36100 38200 41900 54000 144000 155000 220000 222000
2020-07-31 18:30 22.83 139000 222000 (2011) 32800 (2006) 85800 32800 36100 38200 41900 54000 144000 155000 220000 222000
2020-07-31 17:30 22.50 136000 222000 (2011) 32800 (2006) 85800 32800 36100 38200 41900 54000 144000 155000 220000 222000
2020-07-31 16:30 22.19 132000 222000 (2011) 32800 (2006) 85800 32800 36100 38200 41900 54000 144000 155000 220000 222000
2020-07-31 15:30 21.88 129000 222000 (2011) 32800 (2006) 85800 32800 36100 38200 41900 54000 144000 155000 220000 222000
2020-07-31 14:30 21.60 126000 222000 (2011) 32800 (2006) 85800 32800 36100 38200 41900 54000 144000 155000 220000 222000
2020-07-31 13:30 21.37 123000 222000 (2011) 32800 (2006) 85800 32800 36100 38200 41900 54000 144000 155000 220000 222000
2020-07-31 12:30 21.18 121000 222000 (2011) 32800 (2006) 85800 32800 36100 38200 41900 54000 144000 155000 220000 222000
2020-07-31 11:30 21.00 120000 222000 (2011) 32800 (2006) 85800 32800 36100 38200 41900 54000 144000 155000 220000 222000
2020-07-31 10:30 20.80 117000 222000 (2011) 32800 (2006) 85800 32800 36100 38200 41900 54000 144000 155000 220000 222000
2020-07-31 09:30 20.61 116000 222000 (2011) 32800 (2006) 85800 32800 36100 38200 41900 54000 144000 155000 220000 222000
2020-07-31 08:30 20.50 114000 222000 (2011) 32800 (2006) 85800 32800 36100 38200 41900 54000 144000 155000 220000 222000
2020-07-31 07:30 20.36 113000 222000 (2011) 32800 (2006) 85800 32800 36100 38200 41900 54000 144000 155000 220000 222000
2020-07-31 06:30 20.25 112000 222000 (2011) 32800 (2006) 85800 32800 36100 38200 41900 54000 144000 155000 220000 222000
2020-07-31 05:30 20.14 111000 222000 (2011) 32800 (2006) 85800 32800 36100 38200 41900 54000 144000 155000 220000 222000
2020-07-31 04:30 19.98 109000 222000 (2011) 32800 (2006) 85800 32800 36100 38200 41900 54000 144000 155000 220000 222000
2020-07-31 03:30 19.85 108000 222000 (2011) 32800 (2006) 85800 32800 36100 38200 41900 54000 144000 155000 220000 222000
2020-07-31 02:30 19.71 107000 222000 (2011) 32800 (2006) 85800 32800 36100 38200 41900 54000 144000 155000 220000 222000
2020-07-31 01:30 19.52 105000 222000 (2011) 32800 (2006) 85800 32800 36100 38200 41900 54000 144000 155000 220000 222000
2020-07-31 00:30 19.40 104000 222000 (2011) 32800 (2006) 85800 32800 36100 38200 41900 54000 144000 155000 220000 222000
2020-07-30 23:30 19.28 103000 221000 (2011) 33700 (2006) 84100 33700 35300 38000 41000 55200 130000 144000 195000 221000
2020-07-30 22:30 19.15 102000 221000 (2011) 33700 (2006) 84100 33700 35300 38000 41000 55200 130000 144000 195000 221000
2020-07-30 21:30 19.05 101000 221000 (2011) 33700 (2006) 84100 33700 35300 38000 41000 55200 130000 144000 195000 221000
2020-07-30 20:30 18.90 99400 221000 (2011) 33700 (2006) 84100 33700 35300 38000 41000 55200 130000 144000 195000 221000
2020-07-30 19:30 18.76 98200 221000 (2011) 33700 (2006) 84100 33700 35300 38000 41000 55200 130000 144000 195000 221000
2020-07-30 18:30 18.71 97700 221000 (2011) 33700 (2006) 84100 33700 35300 38000 41000 55200 130000 144000 195000 221000
2020-07-30 17:30 18.61 96900 221000 (2011) 33700 (2006) 84100 33700 35300 38000 41000 55200 130000 144000 195000 221000
2020-07-30 16:30 18.59 96700 221000 (2011) 33700 (2006) 84100 33700 35300 38000 41000 55200 130000 144000 195000 221000
2020-07-30 15:30 18.53 96200 221000 (2011) 33700 (2006) 84100 33700 35300 38000 41000 55200 130000 144000 195000 221000
2020-07-30 14:30 18.48 95700 221000 (2011) 33700 (2006) 84100 33700 35300 38000 41000 55200 130000 144000 195000 221000
2020-07-30 13:30 18.41 95100 221000 (2011) 33700 (2006) 84100 33700 35300 38000 41000 55200 130000 144000 195000 221000
2020-07-30 12:30 18.33 94400 221000 (2011) 33700 (2006) 84100 33700 35300 38000 41000 55200 130000 144000 195000 221000
2020-07-30 11:30 18.32 94400 221000 (2011) 33700 (2006) 84100 33700 35300 38000 41000 55200 130000 144000 195000 221000
2020-07-30 10:30 18.31 94300 221000 (2011) 33700 (2006) 84100 33700 35300 38000 41000 55200 130000 144000 195000 221000
2020-07-30 09:30 18.32 94400 221000 (2011) 33700 (2006) 84100 33700 35300 38000 41000 55200 130000 144000 195000 221000
2020-07-30 08:30 18.29 94100 221000 (2011) 33700 (2006) 84100 33700 35300 38000 41000 55200 130000 144000 195000 221000
2020-07-30 07:30 18.26 93900 221000 (2011) 33700 (2006) 84100 33700 35300 38000 41000 55200 130000 144000 195000 221000
2020-07-30 06:30 18.22 93500 221000 (2011) 33700 (2006) 84100 33700 35300 38000 41000 55200 130000 144000 195000 221000
2020-07-30 05:30 18.19 93300 221000 (2011) 33700 (2006) 84100 33700 35300 38000 41000 55200 130000 144000 195000 221000
2020-07-30 04:30 18.13 92800 221000 (2011) 33700 (2006) 84100 33700 35300 38000 41000 55200 130000 144000 195000 221000
2020-07-30 03:30 18.08 92300 221000 (2011) 33700 (2006) 84100 33700 35300 38000 41000 55200 130000 144000 195000 221000
2020-07-30 02:30 18.03 91900 221000 (2011) 33700 (2006) 84100 33700 35300 38000 41000 55200 130000 144000 195000 221000
2020-07-30 01:30 17.97 91400 221000 (2011) 33700 (2006) 84100 33700 35300 38000 41000 55200 130000 144000 195000 221000
2020-07-30 00:30 17.92 91000 221000 (2011) 33700 (2006) 84100 33700 35300 38000 41000 55200 130000 144000 195000 221000
2020-07-29 23:30 17.84 90300 219000 (2011) 33200 (2002) 83400 33200 34200 38500 39000 57200 125000 144000 181000 219000
2020-07-29 22:30 17.84 90300 219000 (2011) 33200 (2002) 83400 33200 34200 38500 39000 57200 125000 144000 181000 219000
2020-07-29 21:30 17.82 90100 219000 (2011) 33200 (2002) 83400 33200 34200 38500 39000 57200 125000 144000 181000 219000
2020-07-29 20:30 17.77 89700 219000 (2011) 33200 (2002) 83400 33200 34200 38500 39000 57200 125000 144000 181000 219000
2020-07-29 19:30 17.76 89600 219000 (2011) 33200 (2002) 83400 33200 34200 38500 39000 57200 125000 144000 181000 219000
2020-07-29 18:30 17.75 89500 219000 (2011) 33200 (2002) 83400 33200 34200 38500 39000 57200 125000 144000 181000 219000
2020-07-29 17:30 17.74 89400 219000 (2011) 33200 (2002) 83400 33200 34200 38500 39000 57200 125000 144000 181000 219000
2020-07-29 16:30 17.71 89200 219000 (2011) 33200 (2002) 83400 33200 34200 38500 39000 57200 125000 144000 181000 219000
2020-07-29 15:30 17.71 89200 219000 (2011) 33200 (2002) 83400 33200 34200 38500 39000 57200 125000 144000 181000 219000
2020-07-29 14:30 17.72 89300 219000 (2011) 33200 (2002) 83400 33200 34200 38500 39000 57200 125000 144000 181000 219000
2020-07-29 13:30 17.70 89100 219000 (2011) 33200 (2002) 83400 33200 34200 38500 39000 57200 125000 144000 181000 219000
2020-07-29 12:30 17.69 89000 219000 (2011) 33200 (2002) 83400 33200 34200 38500 39000 57200 125000 144000 181000 219000
2020-07-29 11:30 17.65 88600 219000 (2011) 33200 (2002) 83400 33200 34200 38500 39000 57200 125000 144000 181000 219000
2020-07-29 10:30 17.59 88100 219000 (2011) 33200 (2002) 83400 33200 34200 38500 39000 57200 125000 144000 181000 219000
2020-07-29 09:30 17.58 88000 219000 (2011) 33200 (2002) 83400 33200 34200 38500 39000 57200 125000 144000 181000 219000
2020-07-29 08:30 17.57 87900 219000 (2011) 33200 (2002) 83400 33200 34200 38500 39000 57200 125000 144000 181000 219000
2020-07-29 07:30 17.56 87800 219000 (2011) 33200 (2002) 83400 33200 34200 38500 39000 57200 125000 144000 181000 219000
2020-07-29 06:30 17.54 87700 219000 (2011) 33200 (2002) 83400 33200 34200 38500 39000 57200 125000 144000 181000 219000
2020-07-29 05:30 17.57 87900 219000 (2011) 33200 (2002) 83400 33200 34200 38500 39000 57200 125000 144000 181000 219000
2020-07-29 04:30 17.60 88200 219000 (2011) 33200 (2002) 83400 33200 34200 38500 39000 57200 125000 144000 181000 219000
2020-07-29 03:30 17.60 88200 219000 (2011) 33200 (2002) 83400 33200 34200 38500 39000 57200 125000 144000 181000 219000
2020-07-29 02:30 17.59 88100 219000 (2011) 33200 (2002) 83400 33200 34200 38500 39000 57200 125000 144000 181000 219000
2020-07-29 01:30 17.63 88500 219000 (2011) 33200 (2002) 83400 33200 34200 38500 39000 57200 125000 144000 181000 219000
2020-07-29 00:30 17.68 88900 219000 (2011) 33200 (2002) 83400 33200 34200 38500 39000 57200 125000 144000 181000 219000
2020-07-28 23:30 17.72 89300 218000 (2011) 31900 (2002) 83900 31900 34500 37900 40500 59300 127000 151000 171000 218000
2020-07-28 22:30 17.74 89400 218000 (2011) 31900 (2002) 83900 31900 34500 37900 40500 59300 127000 151000 171000 218000
2020-07-28 21:30 17.80 90000 218000 (2011) 31900 (2002) 83900 31900 34500 37900 40500 59300 127000 151000 171000 218000
2020-07-28 20:30 17.81 90100 218000 (2011) 31900 (2002) 83900 31900 34500 37900 40500 59300 127000 151000 171000 218000
2020-07-28 19:30 17.84 90300 218000 (2011) 31900 (2002) 83900 31900 34500 37900 40500 59300 127000 151000 171000 218000
2020-07-28 18:30 17.90 90800 218000 (2011) 31900 (2002) 83900 31900 34500 37900 40500 59300 127000 151000 171000 218000
2020-07-28 17:30 17.94 91200 218000 (2011) 31900 (2002) 83900 31900 34500 37900 40500 59300 127000 151000 171000 218000
2020-07-28 16:30 17.95 91200 218000 (2011) 31900 (2002) 83900 31900 34500 37900 40500 59300 127000 151000 171000 218000
2020-07-28 15:30 17.92 91000 218000 (2011) 31900 (2002) 83900 31900 34500 37900 40500 59300 127000 151000 171000 218000
2020-07-28 14:30 17.91 90900 218000 (2011) 31900 (2002) 83900 31900 34500 37900 40500 59300 127000 151000 171000 218000
2020-07-28 13:30 17.94 91200 218000 (2011) 31900 (2002) 83900 31900 34500 37900 40500 59300 127000 151000 171000 218000
2020-07-28 12:30 17.90 90800 218000 (2011) 31900 (2002) 83900 31900 34500 37900 40500 59300 127000 151000 171000 218000
2020-07-28 11:30 17.82 90100 218000 (2011) 31900 (2002) 83900 31900 34500 37900 40500 59300 127000 151000 171000 218000
2020-07-28 10:30 17.77 89700 218000 (2011) 31900 (2002) 83900 31900 34500 37900 40500 59300 127000 151000 171000 218000
2020-07-28 09:30 17.70 89100 218000 (2011) 31900 (2002) 83900 31900 34500 37900 40500 59300 127000 151000 171000 218000
2020-07-28 08:30 17.61 88300 218000 (2011) 31900 (2002) 83900 31900 34500 37900 40500 59300 127000 151000 171000 218000
2020-07-28 07:30 17.47 87100 218000 (2011) 31900 (2002) 83900 31900 34500 37900 40500 59300 127000 151000 171000 218000
2020-07-28 06:30 17.35 86000 218000 (2011) 31900 (2002) 83900 31900 34500 37900 40500 59300 127000 151000 171000 218000
2020-07-28 05:30 17.20 84700 218000 (2011) 31900 (2002) 83900 31900 34500 37900 40500 59300 127000 151000 171000 218000
2020-07-28 04:30 17.06 83500 218000 (2011) 31900 (2002) 83900 31900 34500 37900 40500 59300 127000 151000 171000 218000
2020-07-28 03:30 16.93 82500 218000 (2011) 31900 (2002) 83900 31900 34500 37900 40500 59300 127000 151000 171000 218000
2020-07-28 02:30 16.80 81400 218000 (2011) 31900 (2002) 83900 31900 34500 37900 40500 59300 127000 151000 171000 218000
2020-07-28 01:30 16.69 80500 218000 (2011) 31900 (2002) 83900 31900 34500 37900 40500 59300 127000 151000 171000 218000
2020-07-28 00:30 16.57 79500 218000 (2011) 31900 (2002) 83900 31900 34500 37900 40500 59300 127000 151000 171000 218000
2020-07-27 23:30 16.46 78600 217000 (2011) 32400 (2002) 81300 32400 34300 38600 40700 60400 117000 141000 171000 217000
2020-07-27 22:30 16.36 77800 217000 (2011) 32400 (2002) 81300 32400 34300 38600 40700 60400 117000 141000 171000 217000
2020-07-27 21:30 16.28 77200 217000 (2011) 32400 (2002) 81300 32400 34300 38600 40700 60400 117000 141000 171000 217000
2020-07-27 20:30 16.19 76500 217000 (2011) 32400 (2002) 81300 32400 34300 38600 40700 60400 117000 141000 171000 217000
2020-07-27 19:30 16.12 75900 217000 (2011) 32400 (2002) 81300 32400 34300 38600 40700 60400 117000 141000 171000 217000
2020-07-27 18:30 16.05 75400 217000 (2011) 32400 (2002) 81300 32400 34300 38600 40700 60400 117000 141000 171000 217000
2020-07-27 17:30 16.05 75400 217000 (2011) 32400 (2002) 81300 32400 34300 38600 40700 60400 117000 141000 171000 217000
2020-07-27 16:30 16.04 75300 217000 (2011) 32400 (2002) 81300 32400 34300 38600 40700 60400 117000 141000 171000 217000
2020-07-27 15:30 16.02 75100 217000 (2011) 32400 (2002) 81300 32400 34300 38600 40700 60400 117000 141000 171000 217000
2020-07-27 14:30 16.00 75000 217000 (2011) 32400 (2002) 81300 32400 34300 38600 40700 60400 117000 141000 171000 217000
2020-07-27 13:30 16.02 75100 217000 (2011) 32400 (2002) 81300 32400 34300 38600 40700 60400 117000 141000 171000 217000
2020-07-27 12:30 16.03 75200 217000 (2011) 32400 (2002) 81300 32400 34300 38600 40700 60400 117000 141000 171000 217000
2020-07-27 11:30 16.02 75100 217000 (2011) 32400 (2002) 81300 32400 34300 38600 40700 60400 117000 141000 171000 217000
2020-07-27 10:30 16.02 75100 217000 (2011) 32400 (2002) 81300 32400 34300 38600 40700 60400 117000 141000 171000 217000
2020-07-27 09:30 16.01 75100 217000 (2011) 32400 (2002) 81300 32400 34300 38600 40700 60400 117000 141000 171000 217000
2020-07-27 08:30 16.00 75000 217000 (2011) 32400 (2002) 81300 32400 34300 38600 40700 60400 117000 141000 171000 217000
2020-07-27 07:30 15.99 74900 217000 (2011) 32400 (2002) 81300 32400 34300 38600 40700 60400 117000 141000 171000 217000
2020-07-27 06:30 15.98 74800 217000 (2011) 32400 (2002) 81300 32400 34300 38600 40700 60400 117000 141000 171000 217000
2020-07-27 05:30 15.97 74800 217000 (2011) 32400 (2002) 81300 32400 34300 38600 40700 60400 117000 141000 171000 217000
2020-07-27 04:30 15.98 74800 217000 (2011) 32400 (2002) 81300 32400 34300 38600 40700 60400 117000 141000 171000 217000
2020-07-27 03:30 16.01 75100 217000 (2011) 32400 (2002) 81300 32400 34300 38600 40700 60400 117000 141000 171000 217000
2020-07-27 02:30 16.01 75100 217000 (2011) 32400 (2002) 81300 32400 34300 38600 40700 60400 117000 141000 171000 217000
2020-07-27 01:30 16.05 75400 217000 (2011) 32400 (2002) 81300 32400 34300 38600 40700 60400 117000 141000 171000 217000
2020-07-27 00:30 16.05 75400 217000 (2011) 32400 (2002) 81300 32400 34300 38600 40700 60400 117000 141000 171000 217000
2020-07-26 23:30 16.07 75500 217000 (2011) 32100 (2002) 81500 32100 34900 39200 40300 63100 109000 126000 174000 217000
2020-07-26 22:30 16.07 75500 217000 (2011) 32100 (2002) 81500 32100 34900 39200 40300 63100 109000 126000 174000 217000
2020-07-26 21:30 16.03 75200 217000 (2011) 32100 (2002) 81500 32100 34900 39200 40300 63100 109000 126000 174000 217000
2020-07-26 20:30 16.05 75400 217000 (2011) 32100 (2002) 81500 32100 34900 39200 40300 63100 109000 126000 174000 217000
2020-07-26 19:30 16.06 75500 217000 (2011) 32100 (2002) 81500 32100 34900 39200 40300 63100 109000 126000 174000 217000
2020-07-26 18:30 16.04 75300 217000 (2011) 32100 (2002) 81500 32100 34900 39200 40300 63100 109000 126000 174000 217000
2020-07-26 17:30 16.03 75200 217000 (2011) 32100 (2002) 81500 32100 34900 39200 40300 63100 109000 126000 174000 217000
2020-07-26 16:30 16.06 75500 217000 (2011) 32100 (2002) 81500 32100 34900 39200 40300 63100 109000 126000 174000 217000
2020-07-26 15:30 16.07 75500 217000 (2011) 32100 (2002) 81500 32100 34900 39200 40300 63100 109000 126000 174000 217000
2020-07-26 14:30 16.09 75700 217000 (2011) 32100 (2002) 81500 32100 34900 39200 40300 63100 109000 126000 174000 217000
2020-07-26 13:30 16.11 75800 217000 (2011) 32100 (2002) 81500 32100 34900 39200 40300 63100 109000 126000 174000 217000
2020-07-26 12:30 16.18 76400 217000 (2011) 32100 (2002) 81500 32100 34900 39200 40300 63100 109000 126000 174000 217000
2020-07-26 11:30 16.14 76100 217000 (2011) 32100 (2002) 81500 32100 34900 39200 40300 63100 109000 126000 174000 217000
2020-07-26 10:30 16.15 76200 217000 (2011) 32100 (2002) 81500 32100 34900 39200 40300 63100 109000 126000 174000 217000
2020-07-26 09:30 16.19 76500 217000 (2011) 32100 (2002) 81500 32100 34900 39200 40300 63100 109000 126000 174000 217000
2020-07-26 08:30 16.17 76300 217000 (2011) 32100 (2002) 81500 32100 34900 39200 40300 63100 109000 126000 174000 217000
2020-07-26 07:30 16.17 76300 217000 (2011) 32100 (2002) 81500 32100 34900 39200 40300 63100 109000 126000 174000 217000
2020-07-26 06:30 16.18 76400 217000 (2011) 32100 (2002) 81500 32100 34900 39200 40300 63100 109000 126000 174000 217000
2020-07-26 05:30 16.19 76500 217000 (2011) 32100 (2002) 81500 32100 34900 39200 40300 63100 109000 126000 174000 217000
2020-07-26 04:30 16.22 76700 217000 (2011) 32100 (2002) 81500 32100 34900 39200 40300 63100 109000 126000 174000 217000
2020-07-26 03:30 16.25 76900 217000 (2011) 32100 (2002) 81500 32100 34900 39200 40300 63100 109000 126000 174000 217000
2020-07-26 02:30 16.25 76900 217000 (2011) 32100 (2002) 81500 32100 34900 39200 40300 63100 109000 126000 174000 217000
2020-07-26 01:30 16.24 76900 217000 (2011) 32100 (2002) 81500 32100 34900 39200 40300 63100 109000 126000 174000 217000
2020-07-26 00:30 16.26 77000 217000 (2011) 32100 (2002) 81500 32100 34900 39200 40300 63100 109000 126000 174000 217000
2020-07-25 23:30 16.28 77200 215000 (2011) 32600 (2002) 79400 32600 35700 39400 39800 56800 101000 109000 179000 215000
2020-07-25 22:30 16.32 77500 215000 (2011) 32600 (2002) 79400 32600 35700 39400 39800 56800 101000 109000 179000 215000
2020-07-25 21:30 16.33 77600 215000 (2011) 32600 (2002) 79400 32600 35700 39400 39800 56800 101000 109000 179000 215000
2020-07-25 20:30 16.33 77600 215000 (2011) 32600 (2002) 79400 32600 35700 39400 39800 56800 101000 109000 179000 215000
2020-07-25 19:30 16.38 78000 215000 (2011) 32600 (2002) 79400 32600 35700 39400 39800 56800 101000 109000 179000 215000
2020-07-25 18:30 16.42 78300 215000 (2011) 32600 (2002) 79400 32600 35700 39400 39800 56800 101000 109000 179000 215000
2020-07-25 17:30 16.41 78200 215000 (2011) 32600 (2002) 79400 32600 35700 39400 39800 56800 101000 109000 179000 215000
2020-07-25 16:30 16.43 78400 215000 (2011) 32600 (2002) 79400 32600 35700 39400 39800 56800 101000 109000 179000 215000
2020-07-25 15:30 16.45 78500 215000 (2011) 32600 (2002) 79400 32600 35700 39400 39800 56800 101000 109000 179000 215000
2020-07-25 14:30 16.46 78600 215000 (2011) 32600 (2002) 79400 32600 35700 39400 39800 56800 101000 109000 179000 215000
2020-07-25 13:30 16.53 79200 215000 (2011) 32600 (2002) 79400 32600 35700 39400 39800 56800 101000 109000 179000 215000
2020-07-25 12:30 16.58 79600 215000 (2011) 32600 (2002) 79400 32600 35700 39400 39800 56800 101000 109000 179000 215000
2020-07-25 11:30 16.60 79700 215000 (2011) 32600 (2002) 79400 32600 35700 39400 39800 56800 101000 109000 179000 215000
2020-07-25 10:30 16.67 80300 215000 (2011) 32600 (2002) 79400 32600 35700 39400 39800 56800 101000 109000 179000 215000
2020-07-25 09:30 16.69 80500 215000 (2011) 32600 (2002) 79400 32600 35700 39400 39800 56800 101000 109000 179000 215000
2020-07-25 08:30 16.70 80600 215000 (2011) 32600 (2002) 79400 32600 35700 39400 39800 56800 101000 109000 179000 215000
2020-07-25 07:30 16.77 81100 215000 (2011) 32600 (2002) 79400 32600 35700 39400 39800 56800 101000 109000 179000 215000
2020-07-25 06:30 16.82 81500 215000 (2011) 32600 (2002) 79400 32600 35700 39400 39800 56800 101000 109000 179000 215000
2020-07-25 05:30 16.88 82000 215000 (2011) 32600 (2002) 79400 32600 35700 39400 39800 56800 101000 109000 179000 215000
2020-07-25 04:30 16.93 82500 215000 (2011) 32600 (2002) 79400 32600 35700 39400 39800 56800 101000 109000 179000 215000
2020-07-25 03:30 16.98 82900 215000 (2011) 32600 (2002) 79400 32600 35700 39400 39800 56800 101000 109000 179000 215000
2020-07-25 02:30 17.02 83200 215000 (2011) 32600 (2002) 79400 32600 35700 39400 39800 56800 101000 109000 179000 215000
2020-07-25 01:30 17.09 83800 215000 (2011) 32600 (2002) 79400 32600 35700 39400 39800 56800 101000 109000 179000 215000
2020-07-25 00:30 17.16 84400 215000 (2011) 32600 (2002) 79400 32600 35700 39400 39800 56800 101000 109000 179000 215000
2020-07-24 23:30 17.19 84600 215000 (2011) 33400 (2002) 79500 33400 35800 38900 40200 58800 101000 119000 182000 215000
2020-07-24 22:30 17.27 85300 215000 (2011) 33400 (2002) 79500 33400 35800 38900 40200 58800 101000 119000 182000 215000
2020-07-24 21:30 17.31 85700 215000 (2011) 33400 (2002) 79500 33400 35800 38900 40200 58800 101000 119000 182000 215000
2020-07-24 20:30 17.43 86700 215000 (2011) 33400 (2002) 79500 33400 35800 38900 40200 58800 101000 119000 182000 215000
2020-07-24 19:30 17.47 87100 215000 (2011) 33400 (2002) 79500 33400 35800 38900 40200 58800 101000 119000 182000 215000
2020-07-24 18:30 17.49 87200 215000 (2011) 33400 (2002) 79500 33400 35800 38900 40200 58800 101000 119000 182000 215000
2020-07-24 17:30 17.56 87800 215000 (2011) 33400 (2002) 79500 33400 35800 38900 40200 58800 101000 119000 182000 215000
2020-07-24 16:30 17.64 88500 215000 (2011) 33400 (2002) 79500 33400 35800 38900 40200 58800 101000 119000 182000 215000
2020-07-24 15:30 17.68 88900 215000 (2011) 33400 (2002) 79500 33400 35800 38900 40200 58800 101000 119000 182000 215000
2020-07-24 14:30 17.75 89500 215000 (2011) 33400 (2002) 79500 33400 35800 38900 40200 58800 101000 119000 182000 215000
2020-07-24 13:30 17.82 90100 215000 (2011) 33400 (2002) 79500 33400 35800 38900 40200 58800 101000 119000 182000 215000
2020-07-24 12:30 17.87 86300 215000 (2011) 33400 (2002) 79500 33400 35800 38900 40200 58800 101000 119000 182000 215000
2020-07-24 11:30 17.90 86500 215000 (2011) 33400 (2002) 79500 33400 35800 38900 40200 58800 101000 119000 182000 215000
2020-07-24 10:30 17.96 87100 215000 (2011) 33400 (2002) 79500 33400 35800 38900 40200 58800 101000 119000 182000 215000
2020-07-24 09:30 18.04 87800 215000 (2011) 33400 (2002) 79500 33400 35800 38900 40200 58800 101000 119000 182000 215000
2020-07-24 08:30 18.07 88000 215000 (2011) 33400 (2002) 79500 33400 35800 38900 40200 58800 101000 119000 182000 215000
2020-07-24 07:30 18.13 88500 215000 (2011) 33400 (2002) 79500 33400 35800 38900 40200 58800 101000 119000 182000 215000
2020-07-24 06:30 18.23 89400 215000 (2011) 33400 (2002) 79500 33400 35800 38900 40200 58800 101000 119000 182000 215000
2020-07-24 05:30 18.30 90100 215000 (2011) 33400 (2002) 79500 33400 35800 38900 40200 58800 101000 119000 182000 215000
2020-07-24 04:30 18.36 90600 215000 (2011) 33400 (2002) 79500 33400 35800 38900 40200 58800 101000 119000 182000 215000
2020-07-24 03:30 18.45 91300 215000 (2011) 33400 (2002) 79500 33400 35800 38900 40200 58800 101000 119000 182000 215000
2020-07-24 02:30 18.51 91800 215000 (2011) 33400 (2002) 79500 33400 35800 38900 40200 58800 101000 119000 182000 215000
2020-07-24 01:30 18.59 92500 215000 (2011) 33400 (2002) 79500 33400 35800 38900 40200 58800 101000 119000 182000 215000
2020-07-24 00:30 18.66 93100 215000 (2011) 33400 (2002) 79500 33400 35800 38900 40200 58800 101000 119000 182000 215000
2020-07-23 23:30 18.71 93500 216000 (2011) 34100 (2002) 82900 34100 35300 39000 39500 60000 102000 152000 189000 216000
2020-07-23 22:30 18.81 94400 216000 (2011) 34100 (2002) 82900 34100 35300 39000 39500 60000 102000 152000 189000 216000
2020-07-23 21:30 18.89 95000 216000 (2011) 34100 (2002) 82900 34100 35300 39000 39500 60000 102000 152000 189000 216000
2020-07-23 20:30 19.02 96200 216000 (2011) 34100 (2002) 82900 34100 35300 39000 39500 60000 102000 152000 189000 216000
2020-07-23 19:30 19.12 97000 216000 (2011) 34100 (2002) 82900 34100 35300 39000 39500 60000 102000 152000 189000 216000
2020-07-23 18:30 19.20 97700 216000 (2011) 34100 (2002) 82900 34100 35300 39000 39500 60000 102000 152000 189000 216000
2020-07-23 17:30 19.28 98400 216000 (2011) 34100 (2002) 82900 34100 35300 39000 39500 60000 102000 152000 189000 216000
2020-07-23 16:30 19.35 99100 216000 (2011) 34100 (2002) 82900 34100 35300 39000 39500 60000 102000 152000 189000 216000
2020-07-23 15:30 19.42 99700 216000 (2011) 34100 (2002) 82900 34100 35300 39000 39500 60000 102000 152000 189000 216000
2020-07-23 14:30 19.50 100000 216000 (2011) 34100 (2002) 82900 34100 35300 39000 39500 60000 102000 152000 189000 216000
2020-07-23 13:30 19.60 101000 216000 (2011) 34100 (2002) 82900 34100 35300 39000 39500 60000 102000 152000 189000 216000
2020-07-23 12:30 19.67 102000 216000 (2011) 34100 (2002) 82900 34100 35300 39000 39500 60000 102000 152000 189000 216000
2020-07-23 11:30 19.71 102000 216000 (2011) 34100 (2002) 82900 34100 35300 39000 39500 60000 102000 152000 189000 216000
2020-07-23 10:30 19.80 103000 216000 (2011) 34100 (2002) 82900 34100 35300 39000 39500 60000 102000 152000 189000 216000
2020-07-23 09:30 19.89 104000 216000 (2011) 34100 (2002) 82900 34100 35300 39000 39500 60000 102000 152000 189000 216000
2020-07-23 08:30 19.96 105000 216000 (2011) 34100 (2002) 82900 34100 35300 39000 39500 60000 102000 152000 189000 216000
2020-07-23 07:30 20.08 106000 216000 (2011) 34100 (2002) 82900 34100 35300 39000 39500 60000 102000 152000 189000 216000
2020-07-23 06:30 20.12 106000 216000 (2011) 34100 (2002) 82900 34100 35300 39000 39500 60000 102000 152000 189000 216000
2020-07-23 05:30 20.18 107000 216000 (2011) 34100 (2002) 82900 34100 35300 39000 39500 60000 102000 152000 189000 216000
2020-07-23 04:30 20.20 107000 216000 (2011) 34100 (2002) 82900 34100 35300 39000 39500 60000 102000 152000 189000 216000
2020-07-23 03:30 20.23 107000 216000 (2011) 34100 (2002) 82900 34100 35300 39000 39500 60000 102000 152000 189000 216000
2020-07-23 02:30 20.27 107000 216000 (2011) 34100 (2002) 82900 34100 35300 39000 39500 60000 102000 152000 189000 216000
2020-07-23 01:30 20.34 108000 216000 (2011) 34100 (2002) 82900 34100 35300 39000 39500 60000 102000 152000 189000 216000
2020-07-23 00:30 20.41 109000 216000 (2011) 34100 (2002) 82900 34100 35300 39000 39500 60000 102000 152000 189000 216000
2020-07-22 23:30 20.48 109000 215000 (2011) 35000 (2002) 87000 35000 35000 39500 40000 63800 103000 177000 197000 215000
2020-07-22 22:30 20.56 110000 215000 (2011) 35000 (2002) 87000 35000 35000 39500 40000 63800 103000 177000 197000 215000
2020-07-22 21:30 20.60 111000 215000 (2011) 35000 (2002) 87000 35000 35000 39500 40000 63800 103000 177000 197000 215000
2020-07-22 20:30 20.61 111000 215000 (2011) 35000 (2002) 87000 35000 35000 39500 40000 63800 103000 177000 197000 215000
2020-07-22 19:30 20.61 111000 215000 (2011) 35000 (2002) 87000 35000 35000 39500 40000 63800 103000 177000 197000 215000
2020-07-22 18:30 20.60 111000 215000 (2011) 35000 (2002) 87000 35000 35000 39500 40000 63800 103000 177000 197000 215000
2020-07-22 17:30 20.52 110000 215000 (2011) 35000 (2002) 87000 35000 35000 39500 40000 63800 103000 177000 197000 215000
2020-07-22 16:30 20.45 109000 215000 (2011) 35000 (2002) 87000 35000 35000 39500 40000 63800 103000 177000 197000 215000
2020-07-22 15:30 20.39 109000 215000 (2011) 35000 (2002) 87000 35000 35000 39500 40000 63800 103000 177000 197000 215000
2020-07-22 14:30 20.30 108000 215000 (2011) 35000 (2002) 87000 35000 35000 39500 40000 63800 103000 177000 197000 215000
2020-07-22 13:30 20.16 106000 215000 (2011) 35000 (2002) 87000 35000 35000 39500 40000 63800 103000 177000 197000 215000
2020-07-22 12:30 20.15 106000 215000 (2011) 35000 (2002) 87000 35000 35000 39500 40000 63800 103000 177000 197000 215000
2020-07-22 11:30 20.11 106000 215000 (2011) 35000 (2002) 87000 35000 35000 39500 40000 63800 103000 177000 197000 215000
2020-07-22 10:30 20.01 105000 215000 (2011) 35000 (2002) 87000 35000 35000 39500 40000 63800 103000 177000 197000 215000
2020-07-22 09:30 19.85 104000 215000 (2011) 35000 (2002) 87000 35000 35000 39500 40000 63800 103000 177000 197000 215000
2020-07-22 08:30 19.75 103000 215000 (2011) 35000 (2002) 87000 35000 35000 39500 40000 63800 103000 177000 197000 215000
2020-07-22 07:30 19.62 101000 215000 (2011) 35000 (2002) 87000 35000 35000 39500 40000 63800 103000 177000 197000 215000
2020-07-22 06:30 19.41 99600 215000 (2011) 35000 (2002) 87000 35000 35000 39500 40000 63800 103000 177000 197000 215000
2020-07-22 05:30 19.20 97700 215000 (2011) 35000 (2002) 87000 35000 35000 39500 40000 63800 103000 177000 197000 215000
2020-07-22 04:30 19.00 96000 215000 (2011) 35000 (2002) 87000 35000 35000 39500 40000 63800 103000 177000 197000 215000
2020-07-22 03:30 18.78 94100 215000 (2011) 35000 (2002) 87000 35000 35000 39500 40000 63800 103000 177000 197000 215000
2020-07-22 02:30 18.55 92200 215000 (2011) 35000 (2002) 87000 35000 35000 39500 40000 63800 103000 177000 197000 215000
2020-07-22 01:30 18.32 90200 215000 (2011) 35000 (2002) 87000 35000 35000 39500 40000 63800 103000 177000 197000 215000
2020-07-22 00:30 18.06 87900 215000 (2011) 35000 (2002) 87000 35000 35000 39500 40000 63800 103000 177000 197000 215000
2020-07-21 23:30 17.79 85600 214000 (2011) 35400 (2002) 84700 35400 35500 39800 41200 66500 103000 169000 177000 214000
2020-07-21 22:30 17.59 83900 214000 (2011) 35400 (2002) 84700 35400 35500 39800 41200 66500 103000 169000 177000 214000
2020-07-21 21:30 17.44 82600 214000 (2011) 35400 (2002) 84700 35400 35500 39800 41200 66500 103000 169000 177000 214000
2020-07-21 20:30 17.25 81000 214000 (2011) 35400 (2002) 84700 35400 35500 39800 41200 66500 103000 169000 177000 214000
2020-07-21 19:30 17.09 79700 214000 (2011) 35400 (2002) 84700 35400 35500 39800 41200 66500 103000 169000 177000 214000
2020-07-21 18:30 16.95 78600 214000 (2011) 35400 (2002) 84700 35400 35500 39800 41200 66500 103000 169000 177000 214000
2020-07-21 17:30 16.79 77300 214000 (2011) 35400 (2002) 84700 35400 35500 39800 41200 66500 103000 169000 177000 214000
2020-07-21 16:30 16.69 76500 214000 (2011) 35400 (2002) 84700 35400 35500 39800 41200 66500 103000 169000 177000 214000
2020-07-21 15:30 16.57 75600 214000 (2011) 35400 (2002) 84700 35400 35500 39800 41200 66500 103000 169000 177000 214000
2020-07-21 14:30 16.44 74600 214000 (2011) 35400 (2002) 84700 35400 35500 39800 41200 66500 103000 169000 177000 214000
2020-07-21 13:30 16.36 74000 214000 (2011) 35400 (2002) 84700 35400 35500 39800 41200 66500 103000 169000 177000 214000
2020-07-21 12:30 16.26 73200 214000 (2011) 35400 (2002) 84700 35400 35500 39800 41200 66500 103000 169000 177000 214000
2020-07-21 11:30 16.18 72600 214000 (2011) 35400 (2002) 84700 35400 35500 39800 41200 66500 103000 169000 177000 214000
2020-07-21 10:30 16.13 72200 214000 (2011) 35400 (2002) 84700 35400 35500 39800 41200 66500 103000 169000 177000 214000
2020-07-21 09:30 16.09 71900 214000 (2011) 35400 (2002) 84700 35400 35500 39800 41200 66500 103000 169000 177000 214000
2020-07-21 08:30 16.06 71700 214000 (2011) 35400 (2002) 84700 35400 35500 39800 41200 66500 103000 169000 177000 214000
2020-07-21 07:30 16.00 71300 214000 (2011) 35400 (2002) 84700 35400 35500 39800 41200 66500 103000 169000 177000 214000
2020-07-21 06:30 15.99 71200 214000 (2011) 35400 (2002) 84700 35400 35500 39800 41200 66500 103000 169000 177000 214000
2020-07-21 05:30 15.95 70900 214000 (2011) 35400 (2002) 84700 35400 35500 39800 41200 66500 103000 169000 177000 214000
2020-07-21 04:30 15.92 70700 214000 (2011) 35400 (2002) 84700 35400 35500 39800 41200 66500 103000 169000 177000 214000
2020-07-21 03:30 15.88 70400 214000 (2011) 35400 (2002) 84700 35400 35500 39800 41200 66500 103000 169000 177000 214000
2020-07-21 02:30 15.89 70500 214000 (2011) 35400 (2002) 84700 35400 35500 39800 41200 66500 103000 169000 177000 214000
2020-07-21 01:30 15.86 70200 214000 (2011) 35400 (2002) 84700 35400 35500 39800 41200 66500 103000 169000 177000 214000
2020-07-21 00:30 15.86 70200 214000 (2011) 35400 (2002) 84700 35400 35500 39800 41200 66500 103000 169000 177000 214000
2020-07-20 23:30 15.87 70300 215000 (2011) 35600 (2006) 80500 35600 35900 40200 41500 60900 104000 148000 166000 215000
2020-07-20 22:30 15.86 70200 215000 (2011) 35600 (2006) 80500 35600 35900 40200 41500 60900 104000 148000 166000 215000
2020-07-20 21:30 15.88 70400 215000 (2011) 35600 (2006) 80500 35600 35900 40200 41500 60900 104000 148000 166000 215000
2020-07-20 20:30 15.89 70500 215000 (2011) 35600 (2006) 80500 35600 35900 40200 41500 60900 104000 148000 166000 215000
2020-07-20 19:30 15.89 70500 215000 (2011) 35600 (2006) 80500 35600 35900 40200 41500 60900 104000 148000 166000 215000
2020-07-20 18:30 15.91 70600 215000 (2011) 35600 (2006) 80500 35600 35900 40200 41500 60900 104000 148000 166000 215000
2020-07-20 17:30 15.91 70600 215000 (2011) 35600 (2006) 80500 35600 35900 40200 41500 60900 104000 148000 166000 215000
2020-07-20 16:30 15.92 70700 215000 (2011) 35600 (2006) 80500 35600 35900 40200 41500 60900 104000 148000 166000 215000
2020-07-20 15:30 15.92 70700 215000 (2011) 35600 (2006) 80500 35600 35900 40200 41500 60900 104000 148000 166000 215000
2020-07-20 14:30 15.96 71000 215000 (2011) 35600 (2006) 80500 35600 35900 40200 41500 60900 104000 148000 166000 215000
2020-07-20 13:30 15.95 70900 215000 (2011) 35600 (2006) 80500 35600 35900 40200 41500 60900 104000 148000 166000 215000
2020-07-20 12:30 16.00 71300 215000 (2011) 35600 (2006) 80500 35600 35900 40200 41500 60900 104000 148000 166000 215000
2020-07-20 11:30 15.95 70900 215000 (2011) 35600 (2006) 80500 35600 35900 40200 41500 60900 104000 148000 166000 215000
2020-07-20 10:30 15.96 71000 215000 (2011) 35600 (2006) 80500 35600 35900 40200 41500 60900 104000 148000 166000 215000
2020-07-20 09:30 15.98 71100 215000 (2011) 35600 (2006) 80500 35600 35900 40200 41500 60900 104000 148000 166000 215000
2020-07-20 08:30 16.00 71300 215000 (2011) 35600 (2006) 80500 35600 35900 40200 41500 60900 104000 148000 166000 215000
2020-07-20 07:30 16.02 71400 215000 (2011) 35600 (2006) 80500 35600 35900 40200 41500 60900 104000 148000 166000 215000
2020-07-20 06:30 16.06 71700 215000 (2011) 35600 (2006) 80500 35600 35900 40200 41500 60900 104000 148000 166000 215000
2020-07-20 05:30 16.10 72000 215000 (2011) 35600 (2006) 80500 35600 35900 40200 41500 60900 104000 148000 166000 215000
2020-07-20 04:30 16.12 72200 215000 (2011) 35600 (2006) 80500 35600 35900 40200 41500 60900 104000 148000 166000 215000
2020-07-20 03:30 16.16 72500 215000 (2011) 35600 (2006) 80500 35600 35900 40200 41500 60900 104000 148000 166000 215000
2020-07-20 02:30 16.20 72800 215000 (2011) 35600 (2006) 80500 35600 35900 40200 41500 60900 104000 148000 166000 215000
2020-07-20 01:30 16.26 73200 215000 (2011) 35600 (2006) 80500 35600 35900 40200 41500 60900 104000 148000 166000 215000
2020-07-20 00:30 16.32 73700 215000 (2011) 35600 (2006) 80500 35600 35900 40200 41500 60900 104000 148000 166000 215000
2020-07-19 23:30 16.37 74100 217000 (2011) 36200 (2006) 80900 36200 36300 40900 42000 62500 103000 144000 165000 217000
2020-07-19 22:30 16.40 74300 217000 (2011) 36200 (2006) 80900 36200 36300 40900 42000 62500 103000 144000 165000 217000
2020-07-19 21:30 16.46 74800 217000 (2011) 36200 (2006) 80900 36200 36300 40900 42000 62500 103000 144000 165000 217000
2020-07-19 20:30 16.46 74800 217000 (2011) 36200 (2006) 80900 36200 36300 40900 42000 62500 103000 144000 165000 217000
2020-07-19 19:30 16.52 75200 217000 (2011) 36200 (2006) 80900 36200 36300 40900 42000 62500 103000 144000 165000 217000
2020-07-19 18:30 16.60 75800 217000 (2011) 36200 (2006) 80900 36200 36300 40900 42000 62500 103000 144000 165000 217000
2020-07-19 17:30 16.64 76200 217000 (2011) 36200 (2006) 80900 36200 36300 40900 42000 62500 103000 144000 165000 217000
2020-07-19 16:30 16.70 76600 217000 (2011) 36200 (2006) 80900 36200 36300 40900 42000 62500 103000 144000 165000 217000
2020-07-19 15:30 16.72 76800 217000 (2011) 36200 (2006) 80900 36200 36300 40900 42000 62500 103000 144000 165000 217000
2020-07-19 14:30 16.77 77200 217000 (2011) 36200 (2006) 80900 36200 36300 40900 42000 62500 103000 144000 165000 217000
2020-07-19 13:30 16.84 77700 217000 (2011) 36200 (2006) 80900 36200 36300 40900 42000 62500 103000 144000 165000 217000
2020-07-19 12:30 16.98 78900 217000 (2011) 36200 (2006) 80900 36200 36300 40900 42000 62500 103000 144000 165000 217000
2020-07-19 11:30 17.06 79500 217000 (2011) 36200 (2006) 80900 36200 36300 40900 42000 62500 103000 144000 165000 217000
2020-07-19 10:30 17.12 80000 217000 (2011) 36200 (2006) 80900 36200 36300 40900 42000 62500 103000 144000 165000 217000
2020-07-19 09:30 17.24 81000 217000 (2011) 36200 (2006) 80900 36200 36300 40900 42000 62500 103000 144000 165000 217000
2020-07-19 08:30 17.27 81200 217000 (2011) 36200 (2006) 80900 36200 36300 40900 42000 62500 103000 144000 165000 217000
2020-07-19 07:30 17.31 81500 217000 (2011) 36200 (2006) 80900 36200 36300 40900 42000 62500 103000 144000 165000 217000
2020-07-19 06:30 17.39 82200 217000 (2011) 36200 (2006) 80900 36200 36300 40900 42000 62500 103000 144000 165000 217000
2020-07-19 05:30 17.49 83000 217000 (2011) 36200 (2006) 80900 36200 36300 40900 42000 62500 103000 144000 165000 217000
2020-07-19 04:30 17.57 83700 217000 (2011) 36200 (2006) 80900 36200 36300 40900 42000 62500 103000 144000 165000 217000
2020-07-19 03:30 17.67 84600 217000 (2011) 36200 (2006) 80900 36200 36300 40900 42000 62500 103000 144000 165000 217000
2020-07-19 02:30 17.76 85300 217000 (2011) 36200 (2006) 80900 36200 36300 40900 42000 62500 103000 144000 165000 217000
2020-07-19 01:30 17.86 86200 217000 (2011) 36200 (2006) 80900 36200 36300 40900 42000 62500 103000 144000 165000 217000
2020-07-19 00:30 18.02 87600 217000 (2011) 36200 (2006) 80900 36200 36300 40900 42000 62500 103000 144000 165000 217000
2020-07-18 23:30 18.07 88000 220000 (2011) 36700 (2006) 81600 36700 37600 41700 42800 68100 98900 135000 165000 220000
2020-07-18 22:30 18.18 89000 220000 (2011) 36700 (2006) 81600 36700 37600 41700 42800 68100 98900 135000 165000 220000
2020-07-18 21:30 18.31 90100 220000 (2011) 36700 (2006) 81600 36700 37600 41700 42800 68100 98900 135000 165000 220000
2020-07-18 20:30 18.43 91200 220000 (2011) 36700 (2006) 81600 36700 37600 41700 42800 68100 98900 135000 165000 220000
2020-07-18 19:30 18.49 91700 220000 (2011) 36700 (2006) 81600 36700 37600 41700 42800 68100 98900 135000 165000 220000
2020-07-18 18:30 18.56 92200 220000 (2011) 36700 (2006) 81600 36700 37600 41700 42800 68100 98900 135000 165000 220000
2020-07-18 17:30 18.69 93300 220000 (2011) 36700 (2006) 81600 36700 37600 41700 42800 68100 98900 135000 165000 220000
2020-07-18 16:30 18.77 94000 220000 (2011) 36700 (2006) 81600 36700 37600 41700 42800 68100 98900 135000 165000 220000
2020-07-18 15:30 18.88 95000 220000 (2011) 36700 (2006) 81600 36700 37600 41700 42800 68100 98900 135000 165000 220000
2020-07-18 14:30 19.00 96000 220000 (2011) 36700 (2006) 81600 36700 37600 41700 42800 68100 98900 135000 165000 220000
2020-07-18 13:30 19.15 97300 220000 (2011) 36700 (2006) 81600 36700 37600 41700 42800 68100 98900 135000 165000 220000
2020-07-18 12:30 19.22 97900 220000 (2011) 36700 (2006) 81600 36700 37600 41700 42800 68100 98900 135000 165000 220000
2020-07-18 11:30 19.32 98800 220000 (2011) 36700 (2006) 81600 36700 37600 41700 42800 68100 98900 135000 165000 220000
2020-07-18 10:30 19.37 99200 220000 (2011) 36700 (2006) 81600 36700 37600 41700 42800 68100 98900 135000 165000 220000
2020-07-18 09:30 19.49 100000 220000 (2011) 36700 (2006) 81600 36700 37600 41700 42800 68100 98900 135000 165000 220000
2020-07-18 08:30 19.61 101000 220000 (2011) 36700 (2006) 81600 36700 37600 41700 42800 68100 98900 135000 165000 220000
2020-07-18 07:30 19.72 102000 220000 (2011) 36700 (2006) 81600 36700 37600 41700 42800 68100 98900 135000 165000 220000
2020-07-18 06:30 19.79 103000 220000 (2011) 36700 (2006) 81600 36700 37600 41700 42800 68100 98900 135000 165000 220000
2020-07-18 05:30 19.88 104000 220000 (2011) 36700 (2006) 81600 36700 37600 41700 42800 68100 98900 135000 165000 220000
2020-07-18 04:30 19.94 104000 220000 (2011) 36700 (2006) 81600 36700 37600 41700 42800 68100 98900 135000 165000 220000
2020-07-18 03:30 19.99 105000 220000 (2011) 36700 (2006) 81600 36700 37600 41700 42800 68100 98900 135000 165000 220000
2020-07-18 02:30 20.01 105000 220000 (2011) 36700 (2006) 81600 36700 37600 41700 42800 68100 98900 135000 165000 220000
2020-07-18 01:30 20.04 105000 220000 (2011) 36700 (2006) 81600 36700 37600 41700 42800 68100 98900 135000 165000 220000
2020-07-18 00:30 20.10 106000 220000 (2011) 36700 (2006) 81600 36700 37600 41700 42800 68100 98900 135000 165000 220000
2020-07-17 23:30 20.16 106000 225000 (2011) 37000 (2006) 81100 37000 38700 42500 43200 73000 99200 101000 165000 225000
2020-07-17 22:30 20.18 107000 225000 (2011) 37000 (2006) 81100 37000 38700 42500 43200 73000 99200 101000 165000 225000
2020-07-17 21:30 20.21 107000 225000 (2011) 37000 (2006) 81100 37000 38700 42500 43200 73000 99200 101000 165000 225000
2020-07-17 20:30 20.22 107000 225000 (2011) 37000 (2006) 81100 37000 38700 42500 43200 73000 99200 101000 165000 225000
2020-07-17 19:30 20.26 107000 225000 (2011) 37000 (2006) 81100 37000 38700 42500 43200 73000 99200 101000 165000 225000
2020-07-17 18:30 20.26 107000 225000 (2011) 37000 (2006) 81100 37000 38700 42500 43200 73000 99200 101000 165000 225000
2020-07-17 17:30 20.28 108000 225000 (2011) 37000 (2006) 81100 37000 38700 42500 43200 73000 99200 101000 165000 225000
2020-07-17 16:30 20.28 108000 225000 (2011) 37000 (2006) 81100 37000 38700 42500 43200 73000 99200 101000 165000 225000
2020-07-17 15:30 20.30 108000 225000 (2011) 37000 (2006) 81100 37000 38700 42500 43200 73000 99200 101000 165000 225000
2020-07-17 14:30 20.30 108000 225000 (2011) 37000 (2006) 81100 37000 38700 42500 43200 73000 99200 101000 165000 225000
2020-07-17 13:30 20.34 108000 225000 (2011) 37000 (2006) 81100 37000 38700 42500 43200 73000 99200 101000 165000 225000
2020-07-17 12:30 20.38 109000 225000 (2011) 37000 (2006) 81100 37000 38700 42500 43200 73000 99200 101000 165000 225000
2020-07-17 11:30 20.43 109000 225000 (2011) 37000 (2006) 81100 37000 38700 42500 43200 73000 99200 101000 165000 225000
2020-07-17 10:30 20.40 109000 225000 (2011) 37000 (2006) 81100 37000 38700 42500 43200 73000 99200 101000 165000 225000
2020-07-17 09:30 20.42 109000 225000 (2011) 37000 (2006) 81100 37000 38700 42500 43200 73000 99200 101000 165000 225000
2020-07-17 08:30 20.35 108000 225000 (2011) 37000 (2006) 81100 37000 38700 42500 43200 73000 99200 101000 165000 225000
2020-07-17 07:30 20.29 108000 225000 (2011) 37000 (2006) 81100 37000 38700 42500 43200 73000 99200 101000 165000 225000
2020-07-17 06:30 20.25 107000 225000 (2011) 37000 (2006) 81100 37000 38700 42500 43200 73000 99200 101000 165000 225000
2020-07-17 05:30 20.19 107000 225000 (2011) 37000 (2006) 81100 37000 38700 42500 43200 73000 99200 101000 165000 225000
2020-07-17 04:30 20.08 106000 225000 (2011) 37000 (2006) 81100 37000 38700 42500 43200 73000 99200 101000 165000 225000
2020-07-17 03:30 19.94 104000 225000 (2011) 37000 (2006) 81100 37000 38700 42500 43200 73000 99200 101000 165000 225000
2020-07-17 02:30 19.84 103000 225000 (2011) 37000 (2006) 81100 37000 38700 42500 43200 73000 99200 101000 165000 225000
2020-07-17 01:30 19.79 103000 225000 (2011) 37000 (2006) 81100 37000 38700 42500 43200 73000 99200 101000 165000 225000
2020-07-17 00:30 19.72 102000 225000 (2011) 37000 (2006) 81100 37000 38700 42500 43200 73000 99200 101000 165000 225000
2020-07-16 23:30 19.59 101000 227000 (2011) 37900 (2006) 83200 37900 39000 43400 43400 74700 98900 101000 167000 227000
2020-07-16 22:30 19.54 101000 227000 (2011) 37900 (2006) 83200 37900 39000 43400 43400 74700 98900 101000 167000 227000
2020-07-16 21:30 19.46 100000 227000 (2011) 37900 (2006) 83200 37900 39000 43400 43400 74700 98900 101000 167000 227000
2020-07-16 20:30 19.32 98800 227000 (2011) 37900 (2006) 83200 37900 39000 43400 43400 74700 98900 101000 167000 227000
2020-07-16 19:30 19.23 98000 227000 (2011) 37900 (2006) 83200 37900 39000 43400 43400 74700 98900 101000 167000 227000
2020-07-16 18:30 19.18 97600 227000 (2011) 37900 (2006) 83200 37900 39000 43400 43400 74700 98900 101000 167000 227000
2020-07-16 17:30 19.08 96700 227000 (2011) 37900 (2006) 83200 37900 39000 43400 43400 74700 98900 101000 167000 227000
2020-07-16 16:30 19.00 96000 227000 (2011) 37900 (2006) 83200 37900 39000 43400 43400 74700 98900 101000 167000 227000
2020-07-16 15:30 18.91 95200 227000 (2011) 37900 (2006) 83200 37900 39000 43400 43400 74700 98900 101000 167000 227000
2020-07-16 14:30 18.79 94200 227000 (2011) 37900 (2006) 83200 37900 39000 43400 43400 74700 98900 101000 167000 227000
2020-07-16 13:30 18.64 92900 227000 (2011) 37900 (2006) 83200 37900 39000 43400 43400 74700 98900 101000 167000 227000
2020-07-16 12:30 18.52 91900 227000 (2011) 37900 (2006) 83200 37900 39000 43400 43400 74700 98900 101000 167000 227000
2020-07-16 11:30 18.37 90700 227000 (2011) 37900 (2006) 83200 37900 39000 43400 43400 74700 98900 101000 167000 227000
2020-07-16 10:30 18.22 89300 227000 (2011) 37900 (2006) 83200 37900 39000 43400 43400 74700 98900 101000 167000 227000
2020-07-16 09:30 18.04 87800 227000 (2011) 37900 (2006) 83200 37900 39000 43400 43400 74700 98900 101000 167000 227000
2020-07-16 08:30 17.92 86700 227000 (2011) 37900 (2006) 83200 37900 39000 43400 43400 74700 98900 101000 167000 227000
2020-07-16 07:30 17.74 85200 227000 (2011) 37900 (2006) 83200 37900 39000 43400 43400 74700 98900 101000 167000 227000
2020-07-16 06:30 17.57 83700 227000 (2011) 37900 (2006) 83200 37900 39000 43400 43400 74700 98900 101000 167000 227000
2020-07-16 05:30 17.39 82200 227000 (2011) 37900 (2006) 83200 37900 39000 43400 43400 74700 98900 101000 167000 227000
2020-07-16 04:30 17.21 80700 227000 (2011) 37900 (2006) 83200 37900 39000 43400 43400 74700 98900 101000 167000 227000
2020-07-16 03:30 17.02 79200 227000 (2011) 37900 (2006) 83200 37900 39000 43400 43400 74700 98900 101000 167000 227000
2020-07-16 02:30 16.85 77800 227000 (2011) 37900 (2006) 83200 37900 39000 43400 43400 74700 98900 101000 167000 227000
2020-07-16 01:30 16.73 76900 227000 (2011) 37900 (2006) 83200 37900 39000 43400 43400 74700 98900 101000 167000 227000
2020-07-16 00:30 16.61 75900 227000 (2011) 37900 (2006) 83200 37900 39000 43400 43400 74700 98900 101000 167000 227000
2020-07-15 23:30 16.49 75000 229000 (2011) 38300 (2006) 86500 38300 39400 43500 43700 79100 103000 107000 169000 229000
2020-07-15 22:30 16.43 74500 229000 (2011) 38300 (2006) 86500 38300 39400 43500 43700 79100 103000 107000 169000 229000
2020-07-15 21:30 16.40 74300 229000 (2011) 38300 (2006) 86500 38300 39400 43500 43700 79100 103000 107000 169000 229000
2020-07-15 20:30 16.36 74000 229000 (2011) 38300 (2006) 86500 38300 39400 43500 43700 79100 103000 107000 169000 229000
2020-07-15 19:30 16.30 73500 229000 (2011) 38300 (2006) 86500 38300 39400 43500 43700 79100 103000 107000 169000 229000
2020-07-15 18:30 16.22 72900 229000 (2011) 38300 (2006) 86500 38300 39400 43500 43700 79100 103000 107000 169000 229000
2020-07-15 17:30 16.19 72700 229000 (2011) 38300 (2006) 86500 38300 39400 43500 43700 79100 103000 107000 169000 229000
2020-07-15 16:30 16.19 72700 229000 (2011) 38300 (2006) 86500 38300 39400 43500 43700 79100 103000 107000 169000 229000
2020-07-15 15:30 16.16 72500 229000 (2011) 38300 (2006) 86500 38300 39400 43500 43700 79100 103000 107000 169000 229000
2020-07-15 14:30 16.17 72500 229000 (2011) 38300 (2006) 86500 38300 39400 43500 43700 79100 103000 107000 169000 229000
2020-07-15 13:30 16.18 72600 229000 (2011) 38300 (2006) 86500 38300 39400 43500 43700 79100 103000 107000 169000 229000
2020-07-15 12:30 16.17 72500 229000 (2011) 38300 (2006) 86500 38300 39400 43500 43700 79100 103000 107000 169000 229000
2020-07-15 11:30 16.14 72300 229000 (2011) 38300 (2006) 86500 38300 39400 43500 43700 79100 103000 107000 169000 229000
2020-07-15 10:30 16.14 72300 229000 (2011) 38300 (2006) 86500 38300 39400 43500 43700 79100 103000 107000 169000 229000
2020-07-15 09:30 16.15 72400 229000 (2011) 38300 (2006) 86500 38300 39400 43500 43700 79100 103000 107000 169000 229000
2020-07-15 08:30 16.14 72300 229000 (2011) 38300 (2006) 86500 38300 39400 43500 43700 79100 103000 107000 169000 229000
2020-07-15 07:30 16.03 71500 229000 (2011) 38300 (2006) 86500 38300 39400 43500 43700 79100 103000 107000 169000 229000
2020-07-15 06:30 15.93 70800 229000 (2011) 38300 (2006) 86500 38300 39400 43500 43700 79100 103000 107000 169000 229000
2020-07-15 05:30 15.96 71000 229000 (2011) 38300 (2006) 86500 38300 39400 43500 43700 79100 103000 107000 169000 229000
2020-07-15 04:30 15.84 70100 229000 (2011) 38300 (2006) 86500 38300 39400 43500 43700 79100 103000 107000 169000 229000
2020-07-15 03:30 15.81 69900 229000 (2011) 38300 (2006) 86500 38300 39400 43500 43700 79100 103000 107000 169000 229000
2020-07-15 02:30 15.82 70000 229000 (2011) 38300 (2006) 86500 38300 39400 43500 43700 79100 103000 107000 169000 229000
2020-07-15 01:30 15.78 69700 229000 (2011) 38300 (2006) 86500 38300 39400 43500 43700 79100 103000 107000 169000 229000
2020-07-15 00:30 15.82 70000 229000 (2011) 38300 (2006) 86500 38300 39400 43500 43700 79100 103000 107000 169000 229000
2020-07-14 23:30 15.79 69700 231000 (2011) 38700 (2006) 88400 38700 40800 43200 44000 84500 104000 113000 172000 231000
2020-07-14 22:30 15.78 69700 231000 (2011) 38700 (2006) 88400 38700 40800 43200 44000 84500 104000 113000 172000 231000
2020-07-14 21:30 15.77 69600 231000 (2011) 38700 (2006) 88400 38700 40800 43200 44000 84500 104000 113000 172000 231000
2020-07-14 20:30 15.76 69500 231000 (2011) 38700 (2006) 88400 38700 40800 43200 44000 84500 104000 113000 172000 231000
2020-07-14 19:30 15.77 69600 231000 (2011) 38700 (2006) 88400 38700 40800 43200 44000 84500 104000 113000 172000 231000
2020-07-14 18:30 15.75 69400 231000 (2011) 38700 (2006) 88400 38700 40800 43200 44000 84500 104000 113000 172000 231000
2020-07-14 17:30 15.77 69600 231000 (2011) 38700 (2006) 88400 38700 40800 43200 44000 84500 104000 113000 172000 231000
2020-07-14 16:30 15.83 70000 231000 (2011) 38700 (2006) 88400 38700 40800 43200 44000 84500 104000 113000 172000 231000
2020-07-14 15:30 15.81 69900 231000 (2011) 38700 (2006) 88400 38700 40800 43200 44000 84500 104000 113000 172000 231000
2020-07-14 14:30 15.78 69700 231000 (2011) 38700 (2006) 88400 38700 40800 43200 44000 84500 104000 113000 172000 231000
2020-07-14 13:30 15.78 69700 231000 (2011) 38700 (2006) 88400 38700 40800 43200 44000 84500 104000 113000 172000 231000
2020-07-14 12:30 15.73 69300 231000 (2011) 38700 (2006) 88400 38700 40800 43200 44000 84500 104000 113000 172000 231000
2020-07-14 11:30 15.77 69600 231000 (2011) 38700 (2006) 88400 38700 40800 43200 44000 84500 104000 113000 172000 231000
2020-07-14 10:30 15.75 69400 231000 (2011) 38700 (2006) 88400 38700 40800 43200 44000 84500 104000 113000 172000 231000
2020-07-14 09:30 15.74 69400 231000 (2011) 38700 (2006) 88400 38700 40800 43200 44000 84500 104000 113000 172000 231000
2020-07-14 08:30 15.72 69200 231000 (2011) 38700 (2006) 88400 38700 40800 43200 44000 84500 104000 113000 172000 231000
2020-07-14 07:30 15.76 69500 231000 (2011) 38700 (2006) 88400 38700 40800 43200 44000 84500 104000 113000 172000 231000
2020-07-14 06:30 15.77 69600 231000 (2011) 38700 (2006) 88400 38700 40800 43200 44000 84500 104000 113000 172000 231000
2020-07-14 05:30 15.75 69400 231000 (2011) 38700 (2006) 88400 38700 40800 43200 44000 84500 104000 113000 172000 231000
2020-07-14 04:30 15.76 69500 231000 (2011) 38700 (2006) 88400 38700 40800 43200 44000 84500 104000 113000 172000 231000
2020-07-14 03:30 15.70 69100 231000 (2011) 38700 (2006) 88400 38700 40800 43200 44000 84500 104000 113000 172000 231000
2020-07-14 02:30 15.70 69100 231000 (2011) 38700 (2006) 88400 38700 40800 43200 44000 84500 104000 113000 172000 231000
2020-07-14 01:30 15.68 68900 231000 (2011) 38700 (2006) 88400 38700 40800 43200 44000 84500 104000 113000 172000 231000
2020-07-14 00:30 15.69 69000 231000 (2011) 38700 (2006) 88400 38700 40800 43200 44000 84500 104000 113000 172000 231000
2020-07-13 23:30 15.71 69200 232000 (2011) 36000 (2006) 87700 36000 41600 43300 44500 75000 105000 126000 175000 232000
2020-07-13 22:30 15.69 69000 232000 (2011) 36000 (2006) 87700 36000 41600 43300 44500 75000 105000 126000 175000 232000
2020-07-13 21:30 15.70 69100 232000 (2011) 36000 (2006) 87700 36000 41600 43300 44500 75000 105000 126000 175000 232000
2020-07-13 20:30 15.69 69000 232000 (2011) 36000 (2006) 87700 36000 41600 43300 44500 75000 105000 126000 175000 232000
2020-07-13 19:30 15.69 69000 232000 (2011) 36000 (2006) 87700 36000 41600 43300 44500 75000 105000 126000 175000 232000
2020-07-13 18:30 15.64 68600 232000 (2011) 36000 (2006) 87700 36000 41600 43300 44500 75000 105000 126000 175000 232000
2020-07-13 17:30 15.66 68800 232000 (2011) 36000 (2006) 87700 36000 41600 43300 44500 75000 105000 126000 175000 232000
2020-07-13 16:30 15.68 68900 232000 (2011) 36000 (2006) 87700 36000 41600 43300 44500 75000 105000 126000 175000 232000
2020-07-13 15:30 15.69 69000 232000 (2011) 36000 (2006) 87700 36000 41600 43300 44500 75000 105000 126000 175000 232000
2020-07-13 14:30 15.70 69100 232000 (2011) 36000 (2006) 87700 36000 41600 43300 44500 75000 105000 126000 175000 232000
2020-07-13 13:30 15.74 69400 232000 (2011) 36000 (2006) 87700 36000 41600 43300 44500 75000 105000 126000 175000 232000
2020-07-13 12:30 15.75 69400 232000 (2011) 36000 (2006) 87700 36000 41600 43300 44500 75000 105000 126000 175000 232000
2020-07-13 11:30 15.73 69300 232000 (2011) 36000 (2006) 87700 36000 41600 43300 44500 75000 105000 126000 175000 232000
2020-07-13 10:30 15.76 69500 232000 (2011) 36000 (2006) 87700 36000 41600 43300 44500 75000 105000 126000 175000 232000
2020-07-13 09:30 15.77 69600 232000 (2011) 36000 (2006) 87700 36000 41600 43300 44500 75000 105000 126000 175000 232000
2020-07-13 08:30 15.81 69900 232000 (2011) 36000 (2006) 87700 36000 41600 43300 44500 75000 105000 126000 175000 232000
2020-07-13 07:30 15.87 70300 232000 (2011) 36000 (2006) 87700 36000 41600 43300 44500 75000 105000 126000 175000 232000
2020-07-13 06:30 15.90 70500 232000 (2011) 36000 (2006) 87700 36000 41600 43300 44500 75000 105000 126000 175000 232000
2020-07-13 05:30 15.89 70500 232000 (2011) 36000 (2006) 87700 36000 41600 43300 44500 75000 105000 126000 175000 232000
2020-07-13 04:30 15.86 70200 232000 (2011) 36000 (2006) 87700 36000 41600 43300 44500 75000 105000 126000 175000 232000
2020-07-13 03:30 15.93 70800 232000 (2011) 36000 (2006) 87700 36000 41600 43300 44500 75000 105000 126000 175000 232000
2020-07-13 02:30 15.94 70800 232000 (2011) 36000 (2006) 87700 36000 41600 43300 44500 75000 105000 126000 175000 232000
2020-07-13 01:30 15.98 71100 232000 (2011) 36000 (2006) 87700 36000 41600 43300 44500 75000 105000 126000 175000 232000
2020-07-13 00:30 16.00 71300 232000 (2011) 36000 (2006) 87700 36000 41600 43300 44500 75000 105000 126000 175000 232000
2020-07-12 23:30 16.02 71400 232000 (2011) 35500 (2006) 85800 35500 38400 44400 45500 73700 107000 122000 179000 232000
2020-07-12 22:30 16.04 71600 232000 (2011) 35500 (2006) 85800 35500 38400 44400 45500 73700 107000 122000 179000 232000
2020-07-12 21:30 16.06 71700 232000 (2011) 35500 (2006) 85800 35500 38400 44400 45500 73700 107000 122000 179000 232000
2020-07-12 20:30 16.04 71600 232000 (2011) 35500 (2006) 85800 35500 38400 44400 45500 73700 107000 122000 179000 232000
2020-07-12 19:30 16.06 71700 232000 (2011) 35500 (2006) 85800 35500 38400 44400 45500 73700 107000 122000 179000 232000
2020-07-12 18:30 16.07 71800 232000 (2011) 35500 (2006) 85800 35500 38400 44400 45500 73700 107000 122000 179000 232000
2020-07-12 17:30 16.08 71900 232000 (2011) 35500 (2006) 85800 35500 38400 44400 45500 73700 107000 122000 179000 232000
2020-07-12 16:30 16.15 72400 232000 (2011) 35500 (2006) 85800 35500 38400 44400 45500 73700 107000 122000 179000 232000
2020-07-12 15:30 16.14 72300 232000 (2011) 35500 (2006) 85800 35500 38400 44400 45500 73700 107000 122000 179000 232000
2020-07-12 14:30 16.21 72800 232000 (2011) 35500 (2006) 85800 35500 38400 44400 45500 73700 107000 122000 179000 232000
2020-07-12 13:30 16.18 72600 232000 (2011) 35500 (2006) 85800 35500 38400 44400 45500 73700 107000 122000 179000 232000
2020-07-12 12:30 16.17 72500 232000 (2011) 35500 (2006) 85800 35500 38400 44400 45500 73700 107000 122000 179000 232000
2020-07-12 11:30 16.21 72800 232000 (2011) 35500 (2006) 85800 35500 38400 44400 45500 73700 107000 122000 179000 232000
2020-07-12 10:30 16.20 72800 232000 (2011) 35500 (2006) 85800 35500 38400 44400 45500 73700 107000 122000 179000 232000
2020-07-12 09:30 16.23 73000 232000 (2011) 35500 (2006) 85800 35500 38400 44400 45500 73700 107000 122000 179000 232000
2020-07-12 08:30 16.26 73200 232000 (2011) 35500 (2006) 85800 35500 38400 44400 45500 73700 107000 122000 179000 232000
2020-07-12 07:30 16.30 73500 232000 (2011) 35500 (2006) 85800 35500 38400 44400 45500 73700 107000 122000 179000 232000
2020-07-12 06:30 16.32 73700 232000 (2011) 35500 (2006) 85800 35500 38400 44400 45500 73700 107000 122000 179000 232000
2020-07-12 05:30 16.32 73700 232000 (2011) 35500 (2006) 85800 35500 38400 44400 45500 73700 107000 122000 179000 232000
2020-07-12 04:30 16.32 73700 232000 (2011) 35500 (2006) 85800 35500 38400 44400 45500 73700 107000 122000 179000 232000
2020-07-12 03:30 16.34 73800 232000 (2011) 35500 (2006) 85800 35500 38400 44400 45500 73700 107000 122000 179000 232000
2020-07-12 02:30 16.32 73700 232000 (2011) 35500 (2006) 85800 35500 38400 44400 45500 73700 107000 122000 179000 232000
2020-07-12 01:30 16.35 73900 232000 (2011) 35500 (2006) 85800 35500 38400 44400 45500 73700 107000 122000 179000 232000
2020-07-12 00:30 16.35 73900 232000 (2011) 35500 (2006) 85800 35500 38400 44400 45500 73700 107000 122000 179000 232000

A total of 739 rows are displayed for years 2001 through 2019.